<?xml version="1.0" encoding="UTF-8"?>
<gpx version="1.0" creator="Trackator" xmlns:xsi="http://www.w3.org/2001/XMLSchema-instance" xmlns="http://www.topografix.com/GPX/1/0" xmlns:topografix="http://www.topografix.com/GPX/Private/TopoGrafix/0/1" xsi:schemaLocation="http://www.topografix.com/GPX/1/0 http://www.topografix.com/GPX/1/0/gpx.xsd http://www.topografix.com/GPX/Private/TopoGrafix/0/1 http://www.topografix.com/GPX/Private/TopoGrafix/0/1/topografix.xsd">
<metadata>
<link href="http://www.trackator.com">
<text>Trackator</text>
</link>
</metadata>
<time>2015-08-29T18:41:07Z</time>
<trk>
<name>Track: </name>
<desc>Cycling</desc>
<trkseg>
<trkpt lat="42.7283369" lon="-8.9304969">
<ele>702</ele>
<time>2015-08-29T18:41:07Z</time>
</trkpt>
<trkpt lat="42.7283369" lon="-8.9304969">
<ele>702</ele>
<time>2015-08-29T18:41:09Z</time>
</trkpt>
<trkpt lat="42.7283369" lon="-8.9304969">
<ele>702</ele>
<time>2015-08-29T18:41:10Z</time>
</trkpt>
<trkpt lat="42.7283369" lon="-8.9304969">
<ele>700</ele>
<time>2015-08-29T18:41:13Z</time>
</trkpt>
<trkpt lat="42.7283369" lon="-8.9304969">
<ele>700</ele>
<time>2015-08-29T18:41:15Z</time>
</trkpt>
<trkpt lat="42.7283369" lon="-8.9304969">
<ele>700</ele>
<time>2015-08-29T18:41:17Z</time>
</trkpt>
<trkpt lat="42.7283369" lon="-8.9304969">
<ele>701</ele>
<time>2015-08-29T18:41:19Z</time>
</trkpt>
<trkpt lat="42.7283369" lon="-8.9304969">
<ele>701</ele>
<time>2015-08-29T18:41:21Z</time>
</trkpt>
<trkpt lat="42.7283369" lon="-8.9304969">
<ele>701</ele>
<time>2015-08-29T18:41:23Z</time>
</trkpt>
<trkpt lat="42.7283369" lon="-8.9304969">
<ele>701</ele>
<time>2015-08-29T18:41:25Z</time>
</trkpt>
<trkpt lat="42.7283369" lon="-8.9304969">
<ele>701</ele>
<time>2015-08-29T18:41:27Z</time>
</trkpt>
<trkpt lat="42.7283369" lon="-8.9304969">
<ele>700</ele>
<time>2015-08-29T18:41:29Z</time>
</trkpt>
<trkpt lat="42.7283369" lon="-8.9304969">
<ele>700</ele>
<time>2015-08-29T18:41:31Z</time>
</trkpt>
<trkpt lat="42.7283369" lon="-8.9304969">
<ele>700</ele>
<time>2015-08-29T18:41:33Z</time>
</trkpt>
<trkpt lat="42.7283369" lon="-8.9304969">
<ele>700</ele>
<time>2015-08-29T18:41:35Z</time>
</trkpt>
<trkpt lat="42.7283369" lon="-8.9304969">
<ele>700</ele>
<time>2015-08-29T18:41:37Z</time>
</trkpt>
<trkpt lat="42.7283369" lon="-8.9304969">
<ele>700</ele>
<time>2015-08-29T18:41:39Z</time>
</trkpt>
<trkpt lat="42.7283369" lon="-8.9304969">
<ele>700</ele>
<time>2015-08-29T18:41:41Z</time>
</trkpt>
<trkpt lat="42.7283369" lon="-8.9304969">
<ele>700</ele>
<time>2015-08-29T18:41:43Z</time>
</trkpt>
<trkpt lat="42.7283369" lon="-8.9304969">
<ele>700</ele>
<time>2015-08-29T18:41:45Z</time>
</trkpt>
<trkpt lat="42.7283369" lon="-8.9304969">
<ele>700</ele>
<time>2015-08-29T18:41:47Z</time>
</trkpt>
<trkpt lat="42.7283369" lon="-8.9304969">
<ele>700</ele>
<time>2015-08-29T18:41:49Z</time>
</trkpt>
<trkpt lat="42.7283369" lon="-8.9304969">
<ele>700</ele>
<time>2015-08-29T18:41:51Z</time>
</trkpt>
<trkpt lat="42.7283369" lon="-8.9304969">
<ele>700</ele>
<time>2015-08-29T18:41:53Z</time>
</trkpt>
<trkpt lat="42.7283369" lon="-8.9304969">
<ele>700</ele>
<time>2015-08-29T18:41:55Z</time>
</trkpt>
<trkpt lat="42.7283561" lon="-8.9305262">
<ele>700</ele>
<time>2015-08-29T18:41:57Z</time>
</trkpt>
<trkpt lat="42.7283569" lon="-8.9305234">
<ele>700</ele>
<time>2015-08-29T18:41:59Z</time>
</trkpt>
<trkpt lat="42.7283584" lon="-8.9305201">
<ele>700</ele>
<time>2015-08-29T18:42:01Z</time>
</trkpt>
<trkpt lat="42.7283582" lon="-8.9305173">
<ele>700</ele>
<time>2015-08-29T18:42:03Z</time>
</trkpt>
<trkpt lat="42.7283581" lon="-8.9305174">
<ele>700</ele>
<time>2015-08-29T18:42:05Z</time>
</trkpt>
<trkpt lat="42.7283590" lon="-8.9305235">
<ele>700</ele>
<time>2015-08-29T18:42:07Z</time>
</trkpt>
<trkpt lat="42.7283582" lon="-8.9305294">
<ele>700</ele>
<time>2015-08-29T18:42:09Z</time>
</trkpt>
<trkpt lat="42.7283558" lon="-8.9305293">
<ele>700</ele>
<time>2015-08-29T18:42:11Z</time>
</trkpt>
<trkpt lat="42.7283533" lon="-8.9305285">
<ele>700</ele>
<time>2015-08-29T18:42:13Z</time>
</trkpt>
<trkpt lat="42.7283506" lon="-8.9305280">
<ele>700</ele>
<time>2015-08-29T18:42:15Z</time>
</trkpt>
<trkpt lat="42.7283507" lon="-8.9305339">
<ele>700</ele>
<time>2015-08-29T18:42:17Z</time>
</trkpt>
<trkpt lat="42.7283518" lon="-8.9305403">
<ele>700</ele>
<time>2015-08-29T18:42:19Z</time>
</trkpt>
<trkpt lat="42.7283541" lon="-8.9305432">
<ele>700</ele>
<time>2015-08-29T18:42:21Z</time>
</trkpt>
<trkpt lat="42.7283541" lon="-8.9305446">
<ele>700</ele>
<time>2015-08-29T18:42:23Z</time>
</trkpt>
<trkpt lat="42.7283546" lon="-8.9305464">
<ele>700</ele>
<time>2015-08-29T18:42:25Z</time>
</trkpt>
<trkpt lat="42.7283527" lon="-8.9305432">
<ele>700</ele>
<time>2015-08-29T18:42:27Z</time>
</trkpt>
<trkpt lat="42.7283520" lon="-8.9305435">
<ele>700</ele>
<time>2015-08-29T18:42:29Z</time>
</trkpt>
<trkpt lat="42.7283521" lon="-8.9305413">
<ele>700</ele>
<time>2015-08-29T18:42:31Z</time>
</trkpt>
<trkpt lat="42.7283542" lon="-8.9305407">
<ele>700</ele>
<time>2015-08-29T18:42:33Z</time>
</trkpt>
<trkpt lat="42.7283552" lon="-8.9305397">
<ele>700</ele>
<time>2015-08-29T18:42:35Z</time>
</trkpt>
<trkpt lat="42.7283554" lon="-8.9305383">
<ele>700</ele>
<time>2015-08-29T18:42:37Z</time>
</trkpt>
<trkpt lat="42.7283559" lon="-8.9305395">
<ele>700</ele>
<time>2015-08-29T18:42:39Z</time>
</trkpt>
<trkpt lat="42.7283559" lon="-8.9305404">
<ele>700</ele>
<time>2015-08-29T18:42:41Z</time>
</trkpt>
<trkpt lat="42.7283600" lon="-8.9305393">
<ele>700</ele>
<time>2015-08-29T18:42:43Z</time>
</trkpt>
<trkpt lat="42.7283601" lon="-8.9305381">
<ele>700</ele>
<time>2015-08-29T18:42:45Z</time>
</trkpt>
<trkpt lat="42.7283579" lon="-8.9305356">
<ele>700</ele>
<time>2015-08-29T18:42:47Z</time>
</trkpt>
<trkpt lat="42.7283557" lon="-8.9305336">
<ele>700</ele>
<time>2015-08-29T18:42:49Z</time>
</trkpt>
<trkpt lat="42.7283543" lon="-8.9305322">
<ele>700</ele>
<time>2015-08-29T18:42:51Z</time>
</trkpt>
<trkpt lat="42.7283541" lon="-8.9305316">
<ele>700</ele>
<time>2015-08-29T18:42:53Z</time>
</trkpt>
<trkpt lat="42.7283532" lon="-8.9305327">
<ele>700</ele>
<time>2015-08-29T18:42:55Z</time>
</trkpt>
<trkpt lat="42.7283555" lon="-8.9305360">
<ele>700</ele>
<time>2015-08-29T18:42:57Z</time>
</trkpt>
<trkpt lat="42.7283552" lon="-8.9305380">
<ele>700</ele>
<time>2015-08-29T18:42:59Z</time>
</trkpt>
<trkpt lat="42.7283528" lon="-8.9305386">
<ele>700</ele>
<time>2015-08-29T18:43:01Z</time>
</trkpt>
<trkpt lat="42.7283475" lon="-8.9305381">
<ele>700</ele>
<time>2015-08-29T18:43:03Z</time>
</trkpt>
<trkpt lat="42.7283463" lon="-8.9305399">
<ele>700</ele>
<time>2015-08-29T18:43:05Z</time>
</trkpt>
<trkpt lat="42.7283459" lon="-8.9305415">
<ele>700</ele>
<time>2015-08-29T18:43:07Z</time>
</trkpt>
<trkpt lat="42.7283460" lon="-8.9305440">
<ele>700</ele>
<time>2015-08-29T18:43:09Z</time>
</trkpt>
<trkpt lat="42.7283451" lon="-8.9305459">
<ele>700</ele>
<time>2015-08-29T18:43:11Z</time>
</trkpt>
<trkpt lat="42.7283466" lon="-8.9305473">
<ele>700</ele>
<time>2015-08-29T18:43:13Z</time>
</trkpt>
<trkpt lat="42.7283514" lon="-8.9305493">
<ele>700</ele>
<time>2015-08-29T18:43:15Z</time>
</trkpt>
<trkpt lat="42.7283536" lon="-8.9305522">
<ele>700</ele>
<time>2015-08-29T18:43:17Z</time>
</trkpt>
<trkpt lat="42.7283553" lon="-8.9305516">
<ele>700</ele>
<time>2015-08-29T18:43:19Z</time>
</trkpt>
<trkpt lat="42.7283558" lon="-8.9305459">
<ele>700</ele>
<time>2015-08-29T18:43:21Z</time>
</trkpt>
<trkpt lat="42.7283554" lon="-8.9305373">
<ele>700</ele>
<time>2015-08-29T18:43:23Z</time>
</trkpt>
<trkpt lat="42.7283535" lon="-8.9305309">
<ele>700</ele>
<time>2015-08-29T18:43:25Z</time>
</trkpt>
<trkpt lat="42.7283533" lon="-8.9305325">
<ele>700</ele>
<time>2015-08-29T18:43:28Z</time>
</trkpt>
<trkpt lat="42.7283538" lon="-8.9305346">
<ele>700</ele>
<time>2015-08-29T18:43:30Z</time>
</trkpt>
<trkpt lat="42.7283557" lon="-8.9305363">
<ele>700</ele>
<time>2015-08-29T18:43:33Z</time>
</trkpt>
<trkpt lat="42.7283574" lon="-8.9305370">
<ele>700</ele>
<time>2015-08-29T18:43:35Z</time>
</trkpt>
<trkpt lat="42.7283567" lon="-8.9305345">
<ele>700</ele>
<time>2015-08-29T18:43:37Z</time>
</trkpt>
<trkpt lat="42.7283571" lon="-8.9305313">
<ele>700</ele>
<time>2015-08-29T18:43:39Z</time>
</trkpt>
<trkpt lat="42.7283589" lon="-8.9305301">
<ele>700</ele>
<time>2015-08-29T18:43:41Z</time>
</trkpt>
<trkpt lat="42.7283592" lon="-8.9305284">
<ele>700</ele>
<time>2015-08-29T18:43:43Z</time>
</trkpt>
<trkpt lat="42.7283591" lon="-8.9305259">
<ele>700</ele>
<time>2015-08-29T18:43:45Z</time>
</trkpt>
<trkpt lat="42.7283573" lon="-8.9305264">
<ele>700</ele>
<time>2015-08-29T18:43:47Z</time>
</trkpt>
<trkpt lat="42.7283566" lon="-8.9305246">
<ele>700</ele>
<time>2015-08-29T18:43:49Z</time>
</trkpt>
<trkpt lat="42.7283582" lon="-8.9305241">
<ele>700</ele>
<time>2015-08-29T18:43:51Z</time>
</trkpt>
<trkpt lat="42.7283586" lon="-8.9305257">
<ele>700</ele>
<time>2015-08-29T18:43:53Z</time>
</trkpt>
<trkpt lat="42.7283577" lon="-8.9305217">
<ele>700</ele>
<time>2015-08-29T18:43:55Z</time>
</trkpt>
<trkpt lat="42.7283580" lon="-8.9305199">
<ele>700</ele>
<time>2015-08-29T18:43:57Z</time>
</trkpt>
<trkpt lat="42.7283607" lon="-8.9305217">
<ele>700</ele>
<time>2015-08-29T18:43:59Z</time>
</trkpt>
<trkpt lat="42.7283630" lon="-8.9305232">
<ele>700</ele>
<time>2015-08-29T18:44:01Z</time>
</trkpt>
<trkpt lat="42.7283618" lon="-8.9305246">
<ele>700</ele>
<time>2015-08-29T18:44:03Z</time>
</trkpt>
<trkpt lat="42.7283595" lon="-8.9305252">
<ele>700</ele>
<time>2015-08-29T18:44:05Z</time>
</trkpt>
<trkpt lat="42.7283582" lon="-8.9305280">
<ele>700</ele>
<time>2015-08-29T18:44:07Z</time>
</trkpt>
<trkpt lat="42.7283562" lon="-8.9305294">
<ele>700</ele>
<time>2015-08-29T18:44:09Z</time>
</trkpt>
<trkpt lat="42.7283516" lon="-8.9305308">
<ele>700</ele>
<time>2015-08-29T18:44:11Z</time>
</trkpt>
<trkpt lat="42.7283510" lon="-8.9305325">
<ele>700</ele>
<time>2015-08-29T18:44:14Z</time>
</trkpt>
<trkpt lat="42.7283481" lon="-8.9305316">
<ele>700</ele>
<time>2015-08-29T18:44:16Z</time>
</trkpt>
<trkpt lat="42.7283512" lon="-8.9305311">
<ele>700</ele>
<time>2015-08-29T18:44:18Z</time>
</trkpt>
<trkpt lat="42.7283538" lon="-8.9305311">
<ele>700</ele>
<time>2015-08-29T18:44:20Z</time>
</trkpt>
<trkpt lat="42.7283611" lon="-8.9305293">
<ele>700</ele>
<time>2015-08-29T18:44:22Z</time>
</trkpt>
<trkpt lat="42.7283624" lon="-8.9305294">
<ele>700</ele>
<time>2015-08-29T18:44:24Z</time>
</trkpt>
<trkpt lat="42.7283628" lon="-8.9305332">
<ele>700</ele>
<time>2015-08-29T18:44:26Z</time>
</trkpt>
<trkpt lat="42.7283636" lon="-8.9305360">
<ele>700</ele>
<time>2015-08-29T18:44:28Z</time>
</trkpt>
<trkpt lat="42.7283618" lon="-8.9305369">
<ele>700</ele>
<time>2015-08-29T18:44:30Z</time>
</trkpt>
<trkpt lat="42.7283624" lon="-8.9305372">
<ele>700</ele>
<time>2015-08-29T18:44:32Z</time>
</trkpt>
<trkpt lat="42.7283670" lon="-8.9305358">
<ele>700</ele>
<time>2015-08-29T18:44:34Z</time>
</trkpt>
<trkpt lat="42.7283634" lon="-8.9305325">
<ele>700</ele>
<time>2015-08-29T18:44:36Z</time>
</trkpt>
<trkpt lat="42.7283571" lon="-8.9305296">
<ele>700</ele>
<time>2015-08-29T18:44:38Z</time>
</trkpt>
<trkpt lat="42.7283521" lon="-8.9305312">
<ele>700</ele>
<time>2015-08-29T18:44:40Z</time>
</trkpt>
<trkpt lat="42.7283493" lon="-8.9305344">
<ele>700</ele>
<time>2015-08-29T18:44:42Z</time>
</trkpt>
<trkpt lat="42.7283471" lon="-8.9305353">
<ele>700</ele>
<time>2015-08-29T18:44:44Z</time>
</trkpt>
<trkpt lat="42.7283501" lon="-8.9305377">
<ele>700</ele>
<time>2015-08-29T18:44:46Z</time>
</trkpt>
<trkpt lat="42.7283543" lon="-8.9305395">
<ele>700</ele>
<time>2015-08-29T18:44:48Z</time>
</trkpt>
<trkpt lat="42.7283577" lon="-8.9305377">
<ele>700</ele>
<time>2015-08-29T18:44:50Z</time>
</trkpt>
<trkpt lat="42.7283576" lon="-8.9305342">
<ele>700</ele>
<time>2015-08-29T18:44:52Z</time>
</trkpt>
<trkpt lat="42.7283583" lon="-8.9305340">
<ele>700</ele>
<time>2015-08-29T18:44:54Z</time>
</trkpt>
<trkpt lat="42.7283578" lon="-8.9305354">
<ele>700</ele>
<time>2015-08-29T18:44:56Z</time>
</trkpt>
<trkpt lat="42.7283547" lon="-8.9305344">
<ele>700</ele>
<time>2015-08-29T18:44:58Z</time>
</trkpt>
<trkpt lat="42.7283543" lon="-8.9305354">
<ele>700</ele>
<time>2015-08-29T18:45:00Z</time>
</trkpt>
<trkpt lat="42.7283557" lon="-8.9305382">
<ele>700</ele>
<time>2015-08-29T18:45:02Z</time>
</trkpt>
<trkpt lat="42.7283566" lon="-8.9305369">
<ele>700</ele>
<time>2015-08-29T18:45:04Z</time>
</trkpt>
<trkpt lat="42.7283585" lon="-8.9305377">
<ele>700</ele>
<time>2015-08-29T18:45:06Z</time>
</trkpt>
<trkpt lat="42.7283594" lon="-8.9305359">
<ele>700</ele>
<time>2015-08-29T18:45:08Z</time>
</trkpt>
<trkpt lat="42.7283616" lon="-8.9305319">
<ele>700</ele>
<time>2015-08-29T18:45:10Z</time>
</trkpt>
<trkpt lat="42.7283671" lon="-8.9305307">
<ele>700</ele>
<time>2015-08-29T18:45:12Z</time>
</trkpt>
<trkpt lat="42.7283654" lon="-8.9305333">
<ele>700</ele>
<time>2015-08-29T18:45:14Z</time>
</trkpt>
<trkpt lat="42.7283647" lon="-8.9305361">
<ele>700</ele>
<time>2015-08-29T18:45:16Z</time>
</trkpt>
<trkpt lat="42.7283616" lon="-8.9305309">
<ele>700</ele>
<time>2015-08-29T18:45:18Z</time>
</trkpt>
<trkpt lat="42.7283465" lon="-8.9305334">
<ele>700</ele>
<time>2015-08-29T18:45:22Z</time>
</trkpt>
<trkpt lat="42.7283432" lon="-8.9305413">
<ele>700</ele>
<time>2015-08-29T18:45:24Z</time>
</trkpt>
<trkpt lat="42.7283398" lon="-8.9305464">
<ele>700</ele>
<time>2015-08-29T18:45:26Z</time>
</trkpt>
<trkpt lat="42.7283384" lon="-8.9305467">
<ele>700</ele>
<time>2015-08-29T18:45:28Z</time>
</trkpt>
<trkpt lat="42.7283382" lon="-8.9305429">
<ele>700</ele>
<time>2015-08-29T18:45:30Z</time>
</trkpt>
<trkpt lat="42.7283384" lon="-8.9305391">
<ele>700</ele>
<time>2015-08-29T18:45:32Z</time>
</trkpt>
<trkpt lat="42.7283424" lon="-8.9305356">
<ele>700</ele>
<time>2015-08-29T18:45:34Z</time>
</trkpt>
<trkpt lat="42.7283422" lon="-8.9305311">
<ele>700</ele>
<time>2015-08-29T18:45:36Z</time>
</trkpt>
<trkpt lat="42.7283377" lon="-8.9305319">
<ele>700</ele>
<time>2015-08-29T18:45:38Z</time>
</trkpt>
<trkpt lat="42.7283309" lon="-8.9305364">
<ele>700</ele>
<time>2015-08-29T18:45:40Z</time>
</trkpt>
<trkpt lat="42.7283248" lon="-8.9305421">
<ele>700</ele>
<time>2015-08-29T18:45:42Z</time>
</trkpt>
<trkpt lat="42.7283207" lon="-8.9305454">
<ele>700</ele>
<time>2015-08-29T18:45:44Z</time>
</trkpt>
<trkpt lat="42.7283255" lon="-8.9305446">
<ele>700</ele>
<time>2015-08-29T18:45:46Z</time>
</trkpt>
<trkpt lat="42.7283284" lon="-8.9305409">
<ele>700</ele>
<time>2015-08-29T18:45:48Z</time>
</trkpt>
<trkpt lat="42.7283309" lon="-8.9305407">
<ele>700</ele>
<time>2015-08-29T18:45:50Z</time>
</trkpt>
<trkpt lat="42.7283344" lon="-8.9305418">
<ele>700</ele>
<time>2015-08-29T18:45:52Z</time>
</trkpt>
<trkpt lat="42.7283375" lon="-8.9305410">
<ele>700</ele>
<time>2015-08-29T18:45:54Z</time>
</trkpt>
<trkpt lat="42.7283402" lon="-8.9305410">
<ele>700</ele>
<time>2015-08-29T18:45:56Z</time>
</trkpt>
<trkpt lat="42.7283445" lon="-8.9305412">
<ele>700</ele>
<time>2015-08-29T18:45:58Z</time>
</trkpt>
<trkpt lat="42.7283496" lon="-8.9305387">
<ele>700</ele>
<time>2015-08-29T18:46:00Z</time>
</trkpt>
<trkpt lat="42.7283457" lon="-8.9305338">
<ele>700</ele>
<time>2015-08-29T18:46:02Z</time>
</trkpt>
<trkpt lat="42.7283412" lon="-8.9305317">
<ele>700</ele>
<time>2015-08-29T18:46:04Z</time>
</trkpt>
<trkpt lat="42.7283375" lon="-8.9305315">
<ele>700</ele>
<time>2015-08-29T18:46:06Z</time>
</trkpt>
<trkpt lat="42.7283347" lon="-8.9305319">
<ele>700</ele>
<time>2015-08-29T18:46:08Z</time>
</trkpt>
<trkpt lat="42.7283349" lon="-8.9305347">
<ele>700</ele>
<time>2015-08-29T18:46:10Z</time>
</trkpt>
<trkpt lat="42.7283365" lon="-8.9305378">
<ele>700</ele>
<time>2015-08-29T18:46:12Z</time>
</trkpt>
<trkpt lat="42.7283397" lon="-8.9305379">
<ele>700</ele>
<time>2015-08-29T18:46:14Z</time>
</trkpt>
<trkpt lat="42.7283432" lon="-8.9305310">
<ele>700</ele>
<time>2015-08-29T18:46:16Z</time>
</trkpt>
<trkpt lat="42.7283414" lon="-8.9305276">
<ele>700</ele>
<time>2015-08-29T18:46:18Z</time>
</trkpt>
<trkpt lat="42.7283387" lon="-8.9305298">
<ele>700</ele>
<time>2015-08-29T18:46:20Z</time>
</trkpt>
<trkpt lat="42.7283362" lon="-8.9305329">
<ele>700</ele>
<time>2015-08-29T18:46:22Z</time>
</trkpt>
<trkpt lat="42.7283356" lon="-8.9305338">
<ele>700</ele>
<time>2015-08-29T18:46:24Z</time>
</trkpt>
<trkpt lat="42.7283375" lon="-8.9305334">
<ele>700</ele>
<time>2015-08-29T18:46:26Z</time>
</trkpt>
<trkpt lat="42.7283431" lon="-8.9305348">
<ele>700</ele>
<time>2015-08-29T18:46:28Z</time>
</trkpt>
<trkpt lat="42.7283428" lon="-8.9305380">
<ele>700</ele>
<time>2015-08-29T18:46:30Z</time>
</trkpt>
<trkpt lat="42.7283433" lon="-8.9305416">
<ele>700</ele>
<time>2015-08-29T18:46:32Z</time>
</trkpt>
<trkpt lat="42.7283446" lon="-8.9305450">
<ele>700</ele>
<time>2015-08-29T18:46:34Z</time>
</trkpt>
<trkpt lat="42.7283467" lon="-8.9305482">
<ele>700</ele>
<time>2015-08-29T18:46:36Z</time>
</trkpt>
<trkpt lat="42.7283497" lon="-8.9305509">
<ele>700</ele>
<time>2015-08-29T18:46:38Z</time>
</trkpt>
<trkpt lat="42.7283482" lon="-8.9305515">
<ele>700</ele>
<time>2015-08-29T18:46:40Z</time>
</trkpt>
<trkpt lat="42.7283479" lon="-8.9305520">
<ele>700</ele>
<time>2015-08-29T18:46:42Z</time>
</trkpt>
<trkpt lat="42.7283443" lon="-8.9305518">
<ele>700</ele>
<time>2015-08-29T18:46:44Z</time>
</trkpt>
<trkpt lat="42.7283430" lon="-8.9305526">
<ele>700</ele>
<time>2015-08-29T18:46:46Z</time>
</trkpt>
<trkpt lat="42.7283364" lon="-8.9305528">
<ele>700</ele>
<time>2015-08-29T18:46:48Z</time>
</trkpt>
<trkpt lat="42.7283340" lon="-8.9305536">
<ele>700</ele>
<time>2015-08-29T18:46:50Z</time>
</trkpt>
<trkpt lat="42.7283330" lon="-8.9305548">
<ele>700</ele>
<time>2015-08-29T18:46:52Z</time>
</trkpt>
<trkpt lat="42.7283307" lon="-8.9305531">
<ele>700</ele>
<time>2015-08-29T18:46:54Z</time>
</trkpt>
<trkpt lat="42.7283356" lon="-8.9305527">
<ele>700</ele>
<time>2015-08-29T18:46:56Z</time>
</trkpt>
<trkpt lat="42.7283364" lon="-8.9305545">
<ele>700</ele>
<time>2015-08-29T18:46:58Z</time>
</trkpt>
<trkpt lat="42.7283367" lon="-8.9305542">
<ele>700</ele>
<time>2015-08-29T18:47:00Z</time>
</trkpt>
<trkpt lat="42.7283401" lon="-8.9305486">
<ele>700</ele>
<time>2015-08-29T18:47:02Z</time>
</trkpt>
<trkpt lat="42.7283381" lon="-8.9305489">
<ele>700</ele>
<time>2015-08-29T18:47:04Z</time>
</trkpt>
<trkpt lat="42.7283204" lon="-8.9305874">
<ele>700</ele>
<time>2015-08-29T18:47:06Z</time>
</trkpt>
<trkpt lat="42.7283017" lon="-8.9306283">
<ele>700</ele>
<time>2015-08-29T18:47:08Z</time>
</trkpt>
<trkpt lat="42.7282878" lon="-8.9306590">
<ele>700</ele>
<time>2015-08-29T18:47:10Z</time>
</trkpt>
<trkpt lat="42.7282719" lon="-8.9307116">
<ele>700</ele>
<time>2015-08-29T18:47:12Z</time>
</trkpt>
<trkpt lat="42.7282448" lon="-8.9308361">
<ele>699</ele>
<time>2015-08-29T18:47:14Z</time>
</trkpt>
<trkpt lat="42.7282033" lon="-8.9310050">
<ele>698</ele>
<time>2015-08-29T18:47:16Z</time>
</trkpt>
<trkpt lat="42.7281499" lon="-8.9312122">
<ele>696</ele>
<time>2015-08-29T18:47:18Z</time>
</trkpt>
<trkpt lat="42.7281216" lon="-8.9314385">
<ele>693</ele>
<time>2015-08-29T18:47:20Z</time>
</trkpt>
<trkpt lat="42.7280969" lon="-8.9316090">
<ele>691</ele>
<time>2015-08-29T18:47:22Z</time>
</trkpt>
<trkpt lat="42.7281183" lon="-8.9317229">
<ele>688</ele>
<time>2015-08-29T18:47:24Z</time>
</trkpt>
<trkpt lat="42.7282224" lon="-8.9317698">
<ele>684</ele>
<time>2015-08-29T18:47:26Z</time>
</trkpt>
<trkpt lat="42.7284006" lon="-8.9317050">
<ele>681</ele>
<time>2015-08-29T18:47:28Z</time>
</trkpt>
<trkpt lat="42.7285615" lon="-8.9316151">
<ele>682</ele>
<time>2015-08-29T18:47:30Z</time>
</trkpt>
<trkpt lat="42.7287119" lon="-8.9315514">
<ele>683</ele>
<time>2015-08-29T18:47:32Z</time>
</trkpt>
<trkpt lat="42.7288400" lon="-8.9315039">
<ele>685</ele>
<time>2015-08-29T18:47:34Z</time>
</trkpt>
<trkpt lat="42.7289563" lon="-8.9314869">
<ele>686</ele>
<time>2015-08-29T18:47:36Z</time>
</trkpt>
<trkpt lat="42.7291001" lon="-8.9314736">
<ele>687</ele>
<time>2015-08-29T18:47:38Z</time>
</trkpt>
<trkpt lat="42.7292310" lon="-8.9315237">
<ele>686</ele>
<time>2015-08-29T18:47:40Z</time>
</trkpt>
<trkpt lat="42.7292704" lon="-8.9317768">
<ele>683</ele>
<time>2015-08-29T18:47:42Z</time>
</trkpt>
<trkpt lat="42.7292419" lon="-8.9319780">
<ele>681</ele>
<time>2015-08-29T18:47:44Z</time>
</trkpt>
<trkpt lat="42.7291243" lon="-8.9320601">
<ele>681</ele>
<time>2015-08-29T18:47:46Z</time>
</trkpt>
<trkpt lat="42.7289234" lon="-8.9320575">
<ele>680</ele>
<time>2015-08-29T18:47:48Z</time>
</trkpt>
<trkpt lat="42.7287432" lon="-8.9319708">
<ele>679</ele>
<time>2015-08-29T18:47:50Z</time>
</trkpt>
<trkpt lat="42.7285895" lon="-8.9318727">
<ele>677</ele>
<time>2015-08-29T18:47:52Z</time>
</trkpt>
<trkpt lat="42.7284430" lon="-8.9317903">
<ele>676</ele>
<time>2015-08-29T18:47:54Z</time>
</trkpt>
<trkpt lat="42.7283138" lon="-8.9317910">
<ele>674</ele>
<time>2015-08-29T18:47:56Z</time>
</trkpt>
<trkpt lat="42.7281767" lon="-8.9318919">
<ele>673</ele>
<time>2015-08-29T18:47:58Z</time>
</trkpt>
<trkpt lat="42.7280786" lon="-8.9320953">
<ele>671</ele>
<time>2015-08-29T18:48:00Z</time>
</trkpt>
<trkpt lat="42.7280177" lon="-8.9322610">
<ele>668</ele>
<time>2015-08-29T18:48:02Z</time>
</trkpt>
<trkpt lat="42.7280431" lon="-8.9323880">
<ele>665</ele>
<time>2015-08-29T18:48:04Z</time>
</trkpt>
<trkpt lat="42.7281385" lon="-8.9324359">
<ele>661</ele>
<time>2015-08-29T18:48:06Z</time>
</trkpt>
<trkpt lat="42.7283035" lon="-8.9324107">
<ele>658</ele>
<time>2015-08-29T18:48:08Z</time>
</trkpt>
<trkpt lat="42.7284504" lon="-8.9323312">
<ele>658</ele>
<time>2015-08-29T18:48:10Z</time>
</trkpt>
<trkpt lat="42.7285980" lon="-8.9322510">
<ele>657</ele>
<time>2015-08-29T18:48:12Z</time>
</trkpt>
<trkpt lat="42.7287555" lon="-8.9322028">
<ele>659</ele>
<time>2015-08-29T18:48:14Z</time>
</trkpt>
<trkpt lat="42.7288849" lon="-8.9321929">
<ele>660</ele>
<time>2015-08-29T18:48:16Z</time>
</trkpt>
<trkpt lat="42.7289807" lon="-8.9321933">
<ele>660</ele>
<time>2015-08-29T18:48:18Z</time>
</trkpt>
<trkpt lat="42.7291135" lon="-8.9321309">
<ele>660</ele>
<time>2015-08-29T18:48:20Z</time>
</trkpt>
<trkpt lat="42.7292656" lon="-8.9321367">
<ele>660</ele>
<time>2015-08-29T18:48:22Z</time>
</trkpt>
<trkpt lat="42.7293616" lon="-8.9323327">
<ele>659</ele>
<time>2015-08-29T18:48:24Z</time>
</trkpt>
<trkpt lat="42.7292629" lon="-8.9325256">
<ele>660</ele>
<time>2015-08-29T18:48:26Z</time>
</trkpt>
<trkpt lat="42.7290563" lon="-8.9325406">
<ele>659</ele>
<time>2015-08-29T18:48:28Z</time>
</trkpt>
<trkpt lat="42.7288555" lon="-8.9323971">
<ele>658</ele>
<time>2015-08-29T18:48:30Z</time>
</trkpt>
<trkpt lat="42.7287320" lon="-8.9322624">
<ele>657</ele>
<time>2015-08-29T18:48:32Z</time>
</trkpt>
<trkpt lat="42.7286118" lon="-8.9321681">
<ele>656</ele>
<time>2015-08-29T18:48:34Z</time>
</trkpt>
<trkpt lat="42.7285204" lon="-8.9321470">
<ele>651</ele>
<time>2015-08-29T18:48:36Z</time>
</trkpt>
<trkpt lat="42.7284776" lon="-8.9322419">
<ele>650</ele>
<time>2015-08-29T18:48:38Z</time>
</trkpt>
<trkpt lat="42.7285087" lon="-8.9323990">
<ele>645</ele>
<time>2015-08-29T18:48:40Z</time>
</trkpt>
<trkpt lat="42.7285811" lon="-8.9325680">
<ele>642</ele>
<time>2015-08-29T18:48:42Z</time>
</trkpt>
<trkpt lat="42.7286815" lon="-8.9327068">
<ele>639</ele>
<time>2015-08-29T18:48:44Z</time>
</trkpt>
<trkpt lat="42.7287999" lon="-8.9328564">
<ele>636</ele>
<time>2015-08-29T18:48:46Z</time>
</trkpt>
<trkpt lat="42.7289130" lon="-8.9330058">
<ele>635</ele>
<time>2015-08-29T18:48:48Z</time>
</trkpt>
<trkpt lat="42.7289762" lon="-8.9331243">
<ele>636</ele>
<time>2015-08-29T18:48:50Z</time>
</trkpt>
<trkpt lat="42.7290544" lon="-8.9331714">
<ele>638</ele>
<time>2015-08-29T18:48:52Z</time>
</trkpt>
<trkpt lat="42.7291852" lon="-8.9332018">
<ele>639</ele>
<time>2015-08-29T18:48:54Z</time>
</trkpt>
<trkpt lat="42.7293317" lon="-8.9332373">
<ele>639</ele>
<time>2015-08-29T18:48:56Z</time>
</trkpt>
<trkpt lat="42.7293930" lon="-8.9334125">
<ele>640</ele>
<time>2015-08-29T18:48:58Z</time>
</trkpt>
<trkpt lat="42.7292940" lon="-8.9335953">
<ele>641</ele>
<time>2015-08-29T18:49:00Z</time>
</trkpt>
<trkpt lat="42.7290873" lon="-8.9336114">
<ele>641</ele>
<time>2015-08-29T18:49:02Z</time>
</trkpt>
<trkpt lat="42.7289208" lon="-8.9334852">
<ele>641</ele>
<time>2015-08-29T18:49:04Z</time>
</trkpt>
<trkpt lat="42.7288088" lon="-8.9333445">
<ele>640</ele>
<time>2015-08-29T18:49:06Z</time>
</trkpt>
<trkpt lat="42.7286652" lon="-8.9333165">
<ele>638</ele>
<time>2015-08-29T18:49:08Z</time>
</trkpt>
<trkpt lat="42.7285187" lon="-8.9333642">
<ele>633</ele>
<time>2015-08-29T18:49:10Z</time>
</trkpt>
<trkpt lat="42.7284555" lon="-8.9335611">
<ele>631</ele>
<time>2015-08-29T18:49:12Z</time>
</trkpt>
<trkpt lat="42.7284983" lon="-8.9337357">
<ele>626</ele>
<time>2015-08-29T18:49:14Z</time>
</trkpt>
<trkpt lat="42.7285939" lon="-8.9338652">
<ele>624</ele>
<time>2015-08-29T18:49:16Z</time>
</trkpt>
<trkpt lat="42.7287130" lon="-8.9339693">
<ele>623</ele>
<time>2015-08-29T18:49:18Z</time>
</trkpt>
<trkpt lat="42.7288262" lon="-8.9340758">
<ele>621</ele>
<time>2015-08-29T18:49:20Z</time>
</trkpt>
<trkpt lat="42.7289522" lon="-8.9341745">
<ele>620</ele>
<time>2015-08-29T18:49:22Z</time>
</trkpt>
<trkpt lat="42.7290842" lon="-8.9342485">
<ele>619</ele>
<time>2015-08-29T18:49:24Z</time>
</trkpt>
<trkpt lat="42.7292227" lon="-8.9343278">
<ele>618</ele>
<time>2015-08-29T18:49:26Z</time>
</trkpt>
<trkpt lat="42.7293583" lon="-8.9343943">
<ele>617</ele>
<time>2015-08-29T18:49:28Z</time>
</trkpt>
<trkpt lat="42.7294939" lon="-8.9344736">
<ele>616</ele>
<time>2015-08-29T18:49:30Z</time>
</trkpt>
<trkpt lat="42.7296145" lon="-8.9345905">
<ele>615</ele>
<time>2015-08-29T18:49:32Z</time>
</trkpt>
<trkpt lat="42.7297283" lon="-8.9347105">
<ele>613</ele>
<time>2015-08-29T18:49:34Z</time>
</trkpt>
<trkpt lat="42.7298439" lon="-8.9348276">
<ele>612</ele>
<time>2015-08-29T18:49:36Z</time>
</trkpt>
<trkpt lat="42.7299526" lon="-8.9349432">
<ele>611</ele>
<time>2015-08-29T18:49:38Z</time>
</trkpt>
<trkpt lat="42.7300570" lon="-8.9350401">
<ele>609</ele>
<time>2015-08-29T18:49:40Z</time>
</trkpt>
<trkpt lat="42.7301862" lon="-8.9351569">
<ele>607</ele>
<time>2015-08-29T18:49:42Z</time>
</trkpt>
<trkpt lat="42.7303053" lon="-8.9352885">
<ele>605</ele>
<time>2015-08-29T18:49:44Z</time>
</trkpt>
<trkpt lat="42.7304203" lon="-8.9354118">
<ele>603</ele>
<time>2015-08-29T18:49:46Z</time>
</trkpt>
<trkpt lat="42.7305194" lon="-8.9355155">
<ele>600</ele>
<time>2015-08-29T18:49:48Z</time>
</trkpt>
<trkpt lat="42.7306105" lon="-8.9356054">
<ele>596</ele>
<time>2015-08-29T18:49:50Z</time>
</trkpt>
<trkpt lat="42.7307706" lon="-8.9357172">
<ele>592</ele>
<time>2015-08-29T18:49:52Z</time>
</trkpt>
<trkpt lat="42.7309041" lon="-8.9358868">
<ele>589</ele>
<time>2015-08-29T18:49:54Z</time>
</trkpt>
<trkpt lat="42.7309848" lon="-8.9361772">
<ele>589</ele>
<time>2015-08-29T18:49:56Z</time>
</trkpt>
<trkpt lat="42.7309861" lon="-8.9363514">
<ele>589</ele>
<time>2015-08-29T18:49:58Z</time>
</trkpt>
<trkpt lat="42.7310558" lon="-8.9364877">
<ele>588</ele>
<time>2015-08-29T18:50:00Z</time>
</trkpt>
<trkpt lat="42.7312063" lon="-8.9365012">
<ele>584</ele>
<time>2015-08-29T18:50:02Z</time>
</trkpt>
<trkpt lat="42.7312914" lon="-8.9362872">
<ele>581</ele>
<time>2015-08-29T18:50:04Z</time>
</trkpt>
<trkpt lat="42.7313314" lon="-8.9360173">
<ele>579</ele>
<time>2015-08-29T18:50:06Z</time>
</trkpt>
<trkpt lat="42.7313044" lon="-8.9357897">
<ele>578</ele>
<time>2015-08-29T18:50:08Z</time>
</trkpt>
<trkpt lat="42.7312309" lon="-8.9355998">
<ele>577</ele>
<time>2015-08-29T18:50:10Z</time>
</trkpt>
<trkpt lat="42.7310750" lon="-8.9355167">
<ele>577</ele>
<time>2015-08-29T18:50:12Z</time>
</trkpt>
<trkpt lat="42.7309222" lon="-8.9355621">
<ele>575</ele>
<time>2015-08-29T18:50:14Z</time>
</trkpt>
<trkpt lat="42.7307629" lon="-8.9355631">
<ele>573</ele>
<time>2015-08-29T18:50:16Z</time>
</trkpt>
<trkpt lat="42.7306044" lon="-8.9354751">
<ele>573</ele>
<time>2015-08-29T18:50:18Z</time>
</trkpt>
<trkpt lat="42.7304696" lon="-8.9354919">
<ele>572</ele>
<time>2015-08-29T18:50:20Z</time>
</trkpt>
<trkpt lat="42.7304231" lon="-8.9356543">
<ele>572</ele>
<time>2015-08-29T18:50:22Z</time>
</trkpt>
<trkpt lat="42.7304827" lon="-8.9358486">
<ele>571</ele>
<time>2015-08-29T18:50:24Z</time>
</trkpt>
<trkpt lat="42.7306711" lon="-8.9358345">
<ele>572</ele>
<time>2015-08-29T18:50:26Z</time>
</trkpt>
<trkpt lat="42.7308667" lon="-8.9357314">
<ele>572</ele>
<time>2015-08-29T18:50:28Z</time>
</trkpt>
<trkpt lat="42.7310088" lon="-8.9356517">
<ele>571</ele>
<time>2015-08-29T18:50:30Z</time>
</trkpt>
<trkpt lat="42.7310859" lon="-8.9354515">
<ele>570</ele>
<time>2015-08-29T18:50:32Z</time>
</trkpt>
<trkpt lat="42.7310377" lon="-8.9351316">
<ele>567</ele>
<time>2015-08-29T18:50:34Z</time>
</trkpt>
<trkpt lat="42.7307987" lon="-8.9350378">
<ele>565</ele>
<time>2015-08-29T18:50:36Z</time>
</trkpt>
<trkpt lat="42.7306469" lon="-8.9350928">
<ele>563</ele>
<time>2015-08-29T18:50:38Z</time>
</trkpt>
<trkpt lat="42.7305851" lon="-8.9352351">
<ele>564</ele>
<time>2015-08-29T18:50:40Z</time>
</trkpt>
<trkpt lat="42.7306088" lon="-8.9354421">
<ele>565</ele>
<time>2015-08-29T18:50:42Z</time>
</trkpt>
<trkpt lat="42.7306551" lon="-8.9356984">
<ele>567</ele>
<time>2015-08-29T18:50:44Z</time>
</trkpt>
<trkpt lat="42.7305731" lon="-8.9358549">
<ele>569</ele>
<time>2015-08-29T18:50:46Z</time>
</trkpt>
<trkpt lat="42.7304107" lon="-8.9357628">
<ele>572</ele>
<time>2015-08-29T18:50:48Z</time>
</trkpt>
<trkpt lat="42.7303903" lon="-8.9354941">
<ele>574</ele>
<time>2015-08-29T18:50:50Z</time>
</trkpt>
<trkpt lat="42.7305199" lon="-8.9353195">
<ele>575</ele>
<time>2015-08-29T18:50:52Z</time>
</trkpt>
<trkpt lat="42.7306954" lon="-8.9353812">
<ele>574</ele>
<time>2015-08-29T18:50:54Z</time>
</trkpt>
<trkpt lat="42.7307638" lon="-8.9355699">
<ele>573</ele>
<time>2015-08-29T18:50:56Z</time>
</trkpt>
<trkpt lat="42.7306733" lon="-8.9356816">
<ele>573</ele>
<time>2015-08-29T18:50:58Z</time>
</trkpt>
<trkpt lat="42.7305219" lon="-8.9357381">
<ele>573</ele>
<time>2015-08-29T18:51:00Z</time>
</trkpt>
<trkpt lat="42.7304179" lon="-8.9357508">
<ele>573</ele>
<time>2015-08-29T18:51:02Z</time>
</trkpt>
<trkpt lat="42.7303123" lon="-8.9357832">
<ele>572</ele>
<time>2015-08-29T18:51:04Z</time>
</trkpt>
<trkpt lat="42.7302490" lon="-8.9358588">
<ele>572</ele>
<time>2015-08-29T18:51:06Z</time>
</trkpt>
<trkpt lat="42.7303419" lon="-8.9360077">
<ele>568</ele>
<time>2015-08-29T18:51:08Z</time>
</trkpt>
<trkpt lat="42.7307321" lon="-8.9357326">
<ele>559</ele>
<time>2015-08-29T18:51:12Z</time>
</trkpt>
<trkpt lat="42.7308044" lon="-8.9355634">
<ele>558</ele>
<time>2015-08-29T18:51:14Z</time>
</trkpt>
<trkpt lat="42.7308094" lon="-8.9353177">
<ele>557</ele>
<time>2015-08-29T18:51:16Z</time>
</trkpt>
<trkpt lat="42.7307343" lon="-8.9350710">
<ele>557</ele>
<time>2015-08-29T18:51:18Z</time>
</trkpt>
<trkpt lat="42.7305749" lon="-8.9350871">
<ele>556</ele>
<time>2015-08-29T18:51:20Z</time>
</trkpt>
<trkpt lat="42.7304813" lon="-8.9352566">
<ele>555</ele>
<time>2015-08-29T18:51:22Z</time>
</trkpt>
<trkpt lat="42.7305176" lon="-8.9355619">
<ele>554</ele>
<time>2015-08-29T18:51:24Z</time>
</trkpt>
<trkpt lat="42.7305720" lon="-8.9357530">
<ele>554</ele>
<time>2015-08-29T18:51:26Z</time>
</trkpt>
<trkpt lat="42.7306884" lon="-8.9358106">
<ele>553</ele>
<time>2015-08-29T18:51:28Z</time>
</trkpt>
<trkpt lat="42.7308471" lon="-8.9356833">
<ele>555</ele>
<time>2015-08-29T18:51:30Z</time>
</trkpt>
<trkpt lat="42.7309960" lon="-8.9356381">
<ele>557</ele>
<time>2015-08-29T18:51:32Z</time>
</trkpt>
<trkpt lat="42.7311175" lon="-8.9357803">
<ele>557</ele>
<time>2015-08-29T18:51:34Z</time>
</trkpt>
<trkpt lat="42.7311455" lon="-8.9359935">
<ele>555</ele>
<time>2015-08-29T18:51:36Z</time>
</trkpt>
<trkpt lat="42.7311842" lon="-8.9361576">
<ele>553</ele>
<time>2015-08-29T18:51:38Z</time>
</trkpt>
<trkpt lat="42.7312352" lon="-8.9363250">
<ele>551</ele>
<time>2015-08-29T18:51:40Z</time>
</trkpt>
<trkpt lat="42.7313338" lon="-8.9366375">
<ele>550</ele>
<time>2015-08-29T18:51:43Z</time>
</trkpt>
<trkpt lat="42.7313440" lon="-8.9367693">
<ele>550</ele>
<time>2015-08-29T18:51:45Z</time>
</trkpt>
<trkpt lat="42.7312522" lon="-8.9368693">
<ele>550</ele>
<time>2015-08-29T18:51:47Z</time>
</trkpt>
<trkpt lat="42.7311612" lon="-8.9369420">
<ele>550</ele>
<time>2015-08-29T18:51:49Z</time>
</trkpt>
<trkpt lat="42.7312244" lon="-8.9370661">
<ele>548</ele>
<time>2015-08-29T18:51:51Z</time>
</trkpt>
<trkpt lat="42.7313926" lon="-8.9370324">
<ele>544</ele>
<time>2015-08-29T18:51:53Z</time>
</trkpt>
<trkpt lat="42.7315222" lon="-8.9368898">
<ele>542</ele>
<time>2015-08-29T18:51:55Z</time>
</trkpt>
<trkpt lat="42.7315864" lon="-8.9366681">
<ele>543</ele>
<time>2015-08-29T18:51:57Z</time>
</trkpt>
<trkpt lat="42.7317245" lon="-8.9365483">
<ele>545</ele>
<time>2015-08-29T18:51:59Z</time>
</trkpt>
<trkpt lat="42.7318746" lon="-8.9366492">
<ele>545</ele>
<time>2015-08-29T18:52:01Z</time>
</trkpt>
<trkpt lat="42.7319010" lon="-8.9368766">
<ele>544</ele>
<time>2015-08-29T18:52:03Z</time>
</trkpt>
<trkpt lat="42.7318634" lon="-8.9370768">
<ele>540</ele>
<time>2015-08-29T18:52:05Z</time>
</trkpt>
<trkpt lat="42.7318736" lon="-8.9372243">
<ele>534</ele>
<time>2015-08-29T18:52:07Z</time>
</trkpt>
<trkpt lat="42.7318952" lon="-8.9373802">
<ele>530</ele>
<time>2015-08-29T18:52:09Z</time>
</trkpt>
<trkpt lat="42.7319223" lon="-8.9375390">
<ele>527</ele>
<time>2015-08-29T18:52:11Z</time>
</trkpt>
<trkpt lat="42.7319611" lon="-8.9377096">
<ele>525</ele>
<time>2015-08-29T18:52:13Z</time>
</trkpt>
<trkpt lat="42.7319978" lon="-8.9378857">
<ele>525</ele>
<time>2015-08-29T18:52:15Z</time>
</trkpt>
<trkpt lat="42.7320322" lon="-8.9380696">
<ele>524</ele>
<time>2015-08-29T18:52:17Z</time>
</trkpt>
<trkpt lat="42.7320823" lon="-8.9382696">
<ele>523</ele>
<time>2015-08-29T18:52:19Z</time>
</trkpt>
<trkpt lat="42.7321343" lon="-8.9384694">
<ele>522</ele>
<time>2015-08-29T18:52:21Z</time>
</trkpt>
<trkpt lat="42.7321767" lon="-8.9386494">
<ele>520</ele>
<time>2015-08-29T18:52:23Z</time>
</trkpt>
<trkpt lat="42.7321953" lon="-8.9387948">
<ele>519</ele>
<time>2015-08-29T18:52:25Z</time>
</trkpt>
<trkpt lat="42.7321743" lon="-8.9390127">
<ele>519</ele>
<time>2015-08-29T18:52:27Z</time>
</trkpt>
<trkpt lat="42.7321092" lon="-8.9391935">
<ele>519</ele>
<time>2015-08-29T18:52:29Z</time>
</trkpt>
<trkpt lat="42.7321453" lon="-8.9392943">
<ele>518</ele>
<time>2015-08-29T18:52:31Z</time>
</trkpt>
<trkpt lat="42.7322732" lon="-8.9393708">
<ele>516</ele>
<time>2015-08-29T18:52:33Z</time>
</trkpt>
<trkpt lat="42.7324171" lon="-8.9394044">
<ele>515</ele>
<time>2015-08-29T18:52:35Z</time>
</trkpt>
<trkpt lat="42.7325461" lon="-8.9395009">
<ele>515</ele>
<time>2015-08-29T18:52:37Z</time>
</trkpt>
<trkpt lat="42.7326453" lon="-8.9396695">
<ele>513</ele>
<time>2015-08-29T18:52:39Z</time>
</trkpt>
<trkpt lat="42.7327506" lon="-8.9398485">
<ele>511</ele>
<time>2015-08-29T18:52:41Z</time>
</trkpt>
<trkpt lat="42.7328356" lon="-8.9400349">
<ele>508</ele>
<time>2015-08-29T18:52:43Z</time>
</trkpt>
<trkpt lat="42.7328995" lon="-8.9402134">
<ele>506</ele>
<time>2015-08-29T18:52:45Z</time>
</trkpt>
<trkpt lat="42.7329517" lon="-8.9403963">
<ele>505</ele>
<time>2015-08-29T18:52:47Z</time>
</trkpt>
<trkpt lat="42.7330026" lon="-8.9405814">
<ele>504</ele>
<time>2015-08-29T18:52:49Z</time>
</trkpt>
<trkpt lat="42.7330568" lon="-8.9407858">
<ele>502</ele>
<time>2015-08-29T18:52:51Z</time>
</trkpt>
<trkpt lat="42.7330848" lon="-8.9409739">
<ele>501</ele>
<time>2015-08-29T18:52:53Z</time>
</trkpt>
<trkpt lat="42.7331007" lon="-8.9411476">
<ele>499</ele>
<time>2015-08-29T18:52:55Z</time>
</trkpt>
<trkpt lat="42.7331621" lon="-8.9413190">
<ele>497</ele>
<time>2015-08-29T18:52:57Z</time>
</trkpt>
<trkpt lat="42.7332477" lon="-8.9414969">
<ele>497</ele>
<time>2015-08-29T18:52:59Z</time>
</trkpt>
<trkpt lat="42.7333006" lon="-8.9416277">
<ele>497</ele>
<time>2015-08-29T18:53:01Z</time>
</trkpt>
<trkpt lat="42.7333602" lon="-8.9417518">
<ele>497</ele>
<time>2015-08-29T18:53:03Z</time>
</trkpt>
<trkpt lat="42.7334245" lon="-8.9418923">
<ele>496</ele>
<time>2015-08-29T18:53:05Z</time>
</trkpt>
<trkpt lat="42.7334852" lon="-8.9420373">
<ele>496</ele>
<time>2015-08-29T18:53:07Z</time>
</trkpt>
<trkpt lat="42.7335574" lon="-8.9421851">
<ele>496</ele>
<time>2015-08-29T18:53:09Z</time>
</trkpt>
<trkpt lat="42.7336293" lon="-8.9423277">
<ele>495</ele>
<time>2015-08-29T18:53:11Z</time>
</trkpt>
<trkpt lat="42.7337099" lon="-8.9424869">
<ele>493</ele>
<time>2015-08-29T18:53:13Z</time>
</trkpt>
<trkpt lat="42.7337788" lon="-8.9427240">
<ele>492</ele>
<time>2015-08-29T18:53:15Z</time>
</trkpt>
<trkpt lat="42.7338043" lon="-8.9429285">
<ele>491</ele>
<time>2015-08-29T18:53:17Z</time>
</trkpt>
<trkpt lat="42.7338618" lon="-8.9431086">
<ele>489</ele>
<time>2015-08-29T18:53:19Z</time>
</trkpt>
<trkpt lat="42.7339384" lon="-8.9433022">
<ele>487</ele>
<time>2015-08-29T18:53:21Z</time>
</trkpt>
<trkpt lat="42.7340149" lon="-8.9434771">
<ele>485</ele>
<time>2015-08-29T18:53:23Z</time>
</trkpt>
<trkpt lat="42.7341118" lon="-8.9436631">
<ele>485</ele>
<time>2015-08-29T18:53:25Z</time>
</trkpt>
<trkpt lat="42.7342091" lon="-8.9438418">
<ele>484</ele>
<time>2015-08-29T18:53:27Z</time>
</trkpt>
<trkpt lat="42.7343030" lon="-8.9440375">
<ele>482</ele>
<time>2015-08-29T18:53:28Z</time>
</trkpt>
<trkpt lat="42.7343766" lon="-8.9442194">
<ele>478</ele>
<time>2015-08-29T18:53:30Z</time>
</trkpt>
<trkpt lat="42.7344482" lon="-8.9443924">
<ele>475</ele>
<time>2015-08-29T18:53:32Z</time>
</trkpt>
<trkpt lat="42.7345348" lon="-8.9445771">
<ele>472</ele>
<time>2015-08-29T18:53:34Z</time>
</trkpt>
<trkpt lat="42.7346246" lon="-8.9447632">
<ele>469</ele>
<time>2015-08-29T18:53:36Z</time>
</trkpt>
<trkpt lat="42.7347131" lon="-8.9449426">
<ele>467</ele>
<time>2015-08-29T18:53:38Z</time>
</trkpt>
<trkpt lat="42.7347944" lon="-8.9451206">
<ele>465</ele>
<time>2015-08-29T18:53:40Z</time>
</trkpt>
<trkpt lat="42.7355192" lon="-8.9470511">
<ele>441</ele>
<time>2015-08-29T18:54:00Z</time>
</trkpt>
<trkpt lat="42.7356104" lon="-8.9472573">
<ele>438</ele>
<time>2015-08-29T18:54:02Z</time>
</trkpt>
<trkpt lat="42.7356873" lon="-8.9474316">
<ele>436</ele>
<time>2015-08-29T18:54:04Z</time>
</trkpt>
<trkpt lat="42.7357808" lon="-8.9476162">
<ele>433</ele>
<time>2015-08-29T18:54:06Z</time>
</trkpt>
<trkpt lat="42.7358846" lon="-8.9477923">
<ele>430</ele>
<time>2015-08-29T18:54:08Z</time>
</trkpt>
<trkpt lat="42.7360072" lon="-8.9479601">
<ele>427</ele>
<time>2015-08-29T18:54:10Z</time>
</trkpt>
<trkpt lat="42.7361360" lon="-8.9481275">
<ele>425</ele>
<time>2015-08-29T18:54:12Z</time>
</trkpt>
<trkpt lat="42.7362596" lon="-8.9483070">
<ele>423</ele>
<time>2015-08-29T18:54:14Z</time>
</trkpt>
<trkpt lat="42.7363682" lon="-8.9484837">
<ele>421</ele>
<time>2015-08-29T18:54:16Z</time>
</trkpt>
<trkpt lat="42.7364413" lon="-8.9486374">
<ele>418</ele>
<time>2015-08-29T18:54:18Z</time>
</trkpt>
<trkpt lat="42.7365320" lon="-8.9488122">
<ele>414</ele>
<time>2015-08-29T18:54:20Z</time>
</trkpt>
<trkpt lat="42.7366391" lon="-8.9489929">
<ele>411</ele>
<time>2015-08-29T18:54:22Z</time>
</trkpt>
<trkpt lat="42.7367583" lon="-8.9491639">
<ele>408</ele>
<time>2015-08-29T18:54:24Z</time>
</trkpt>
<trkpt lat="42.7368810" lon="-8.9493366">
<ele>405</ele>
<time>2015-08-29T18:54:26Z</time>
</trkpt>
<trkpt lat="42.7369946" lon="-8.9495219">
<ele>402</ele>
<time>2015-08-29T18:54:28Z</time>
</trkpt>
<trkpt lat="42.7370968" lon="-8.9497060">
<ele>399</ele>
<time>2015-08-29T18:54:30Z</time>
</trkpt>
<trkpt lat="42.7372041" lon="-8.9499000">
<ele>397</ele>
<time>2015-08-29T18:54:32Z</time>
</trkpt>
<trkpt lat="42.7373117" lon="-8.9501021">
<ele>395</ele>
<time>2015-08-29T18:54:34Z</time>
</trkpt>
<trkpt lat="42.7374011" lon="-8.9502895">
<ele>392</ele>
<time>2015-08-29T18:54:36Z</time>
</trkpt>
<trkpt lat="42.7374597" lon="-8.9504650">
<ele>390</ele>
<time>2015-08-29T18:54:38Z</time>
</trkpt>
<trkpt lat="42.7375190" lon="-8.9506475">
<ele>387</ele>
<time>2015-08-29T18:54:40Z</time>
</trkpt>
<trkpt lat="42.7376110" lon="-8.9508410">
<ele>384</ele>
<time>2015-08-29T18:54:42Z</time>
</trkpt>
<trkpt lat="42.7377417" lon="-8.9511076">
<ele>380</ele>
<time>2015-08-29T18:54:45Z</time>
</trkpt>
<trkpt lat="42.7378260" lon="-8.9512962">
<ele>378</ele>
<time>2015-08-29T18:54:47Z</time>
</trkpt>
<trkpt lat="42.7379214" lon="-8.9514920">
<ele>376</ele>
<time>2015-08-29T18:54:49Z</time>
</trkpt>
<trkpt lat="42.7380066" lon="-8.9516787">
<ele>373</ele>
<time>2015-08-29T18:54:51Z</time>
</trkpt>
<trkpt lat="42.7380882" lon="-8.9518669">
<ele>371</ele>
<time>2015-08-29T18:54:53Z</time>
</trkpt>
<trkpt lat="42.7381721" lon="-8.9520566">
<ele>369</ele>
<time>2015-08-29T18:54:55Z</time>
</trkpt>
<trkpt lat="42.7382700" lon="-8.9522513">
<ele>366</ele>
<time>2015-08-29T18:54:57Z</time>
</trkpt>
<trkpt lat="42.7383643" lon="-8.9524485">
<ele>365</ele>
<time>2015-08-29T18:54:59Z</time>
</trkpt>
<trkpt lat="42.7384384" lon="-8.9526400">
<ele>363</ele>
<time>2015-08-29T18:55:01Z</time>
</trkpt>
<trkpt lat="42.7385060" lon="-8.9528255">
<ele>361</ele>
<time>2015-08-29T18:55:03Z</time>
</trkpt>
<trkpt lat="42.7385794" lon="-8.9530227">
<ele>359</ele>
<time>2015-08-29T18:55:05Z</time>
</trkpt>
<trkpt lat="42.7386498" lon="-8.9532126">
<ele>357</ele>
<time>2015-08-29T18:55:07Z</time>
</trkpt>
<trkpt lat="42.7387185" lon="-8.9534056">
<ele>354</ele>
<time>2015-08-29T18:55:09Z</time>
</trkpt>
<trkpt lat="42.7387895" lon="-8.9536061">
<ele>351</ele>
<time>2015-08-29T18:55:11Z</time>
</trkpt>
<trkpt lat="42.7388620" lon="-8.9537995">
<ele>348</ele>
<time>2015-08-29T18:55:13Z</time>
</trkpt>
<trkpt lat="42.7389372" lon="-8.9539793">
<ele>346</ele>
<time>2015-08-29T18:55:15Z</time>
</trkpt>
<trkpt lat="42.7390232" lon="-8.9541662">
<ele>343</ele>
<time>2015-08-29T18:55:17Z</time>
</trkpt>
<trkpt lat="42.7391129" lon="-8.9543492">
<ele>341</ele>
<time>2015-08-29T18:55:19Z</time>
</trkpt>
<trkpt lat="42.7392029" lon="-8.9545185">
<ele>339</ele>
<time>2015-08-29T18:55:21Z</time>
</trkpt>
<trkpt lat="42.7393059" lon="-8.9546978">
<ele>336</ele>
<time>2015-08-29T18:55:23Z</time>
</trkpt>
<trkpt lat="42.7393993" lon="-8.9548823">
<ele>334</ele>
<time>2015-08-29T18:55:25Z</time>
</trkpt>
<trkpt lat="42.7394883" lon="-8.9550766">
<ele>333</ele>
<time>2015-08-29T18:55:27Z</time>
</trkpt>
<trkpt lat="42.7395874" lon="-8.9552539">
<ele>331</ele>
<time>2015-08-29T18:55:29Z</time>
</trkpt>
<trkpt lat="42.7396812" lon="-8.9553936">
<ele>329</ele>
<time>2015-08-29T18:55:31Z</time>
</trkpt>
<trkpt lat="42.7397856" lon="-8.9555615">
<ele>327</ele>
<time>2015-08-29T18:55:33Z</time>
</trkpt>
<trkpt lat="42.7398808" lon="-8.9557216">
<ele>325</ele>
<time>2015-08-29T18:55:35Z</time>
</trkpt>
<trkpt lat="42.7399782" lon="-8.9558711">
<ele>324</ele>
<time>2015-08-29T18:55:37Z</time>
</trkpt>
<trkpt lat="42.7400837" lon="-8.9560365">
<ele>324</ele>
<time>2015-08-29T18:55:39Z</time>
</trkpt>
<trkpt lat="42.7401675" lon="-8.9561953">
<ele>322</ele>
<time>2015-08-29T18:55:41Z</time>
</trkpt>
<trkpt lat="42.7402773" lon="-8.9563756">
<ele>321</ele>
<time>2015-08-29T18:55:43Z</time>
</trkpt>
<trkpt lat="42.7403793" lon="-8.9565403">
<ele>320</ele>
<time>2015-08-29T18:55:45Z</time>
</trkpt>
<trkpt lat="42.7404853" lon="-8.9567093">
<ele>318</ele>
<time>2015-08-29T18:55:47Z</time>
</trkpt>
<trkpt lat="42.7405841" lon="-8.9568789">
<ele>316</ele>
<time>2015-08-29T18:55:49Z</time>
</trkpt>
<trkpt lat="42.7406847" lon="-8.9570300">
<ele>314</ele>
<time>2015-08-29T18:55:51Z</time>
</trkpt>
<trkpt lat="42.7407955" lon="-8.9571747">
<ele>312</ele>
<time>2015-08-29T18:55:53Z</time>
</trkpt>
<trkpt lat="42.7409123" lon="-8.9573204">
<ele>310</ele>
<time>2015-08-29T18:55:55Z</time>
</trkpt>
<trkpt lat="42.7410329" lon="-8.9574654">
<ele>309</ele>
<time>2015-08-29T18:55:57Z</time>
</trkpt>
<trkpt lat="42.7411153" lon="-8.9575924">
<ele>306</ele>
<time>2015-08-29T18:55:59Z</time>
</trkpt>
<trkpt lat="42.7411862" lon="-8.9577197">
<ele>303</ele>
<time>2015-08-29T18:56:01Z</time>
</trkpt>
<trkpt lat="42.7412524" lon="-8.9578306">
<ele>299</ele>
<time>2015-08-29T18:56:03Z</time>
</trkpt>
<trkpt lat="42.7413689" lon="-8.9580094">
<ele>296</ele>
<time>2015-08-29T18:56:05Z</time>
</trkpt>
<trkpt lat="42.7414863" lon="-8.9582148">
<ele>293</ele>
<time>2015-08-29T18:56:07Z</time>
</trkpt>
<trkpt lat="42.7415518" lon="-8.9583817">
<ele>290</ele>
<time>2015-08-29T18:56:09Z</time>
</trkpt>
<trkpt lat="42.7416250" lon="-8.9585504">
<ele>287</ele>
<time>2015-08-29T18:56:11Z</time>
</trkpt>
<trkpt lat="42.7417013" lon="-8.9587206">
<ele>285</ele>
<time>2015-08-29T18:56:13Z</time>
</trkpt>
<trkpt lat="42.7417801" lon="-8.9588829">
<ele>283</ele>
<time>2015-08-29T18:56:15Z</time>
</trkpt>
<trkpt lat="42.7418646" lon="-8.9590370">
<ele>280</ele>
<time>2015-08-29T18:56:17Z</time>
</trkpt>
<trkpt lat="42.7419652" lon="-8.9592024">
<ele>279</ele>
<time>2015-08-29T18:56:19Z</time>
</trkpt>
<trkpt lat="42.7420522" lon="-8.9593667">
<ele>277</ele>
<time>2015-08-29T18:56:21Z</time>
</trkpt>
<trkpt lat="42.7421225" lon="-8.9595223">
<ele>276</ele>
<time>2015-08-29T18:56:23Z</time>
</trkpt>
<trkpt lat="42.7421876" lon="-8.9596722">
<ele>274</ele>
<time>2015-08-29T18:56:25Z</time>
</trkpt>
<trkpt lat="42.7422363" lon="-8.9597975">
<ele>273</ele>
<time>2015-08-29T18:56:27Z</time>
</trkpt>
<trkpt lat="42.7422902" lon="-8.9599203">
<ele>271</ele>
<time>2015-08-29T18:56:29Z</time>
</trkpt>
<trkpt lat="42.7423803" lon="-8.9600674">
<ele>269</ele>
<time>2015-08-29T18:56:31Z</time>
</trkpt>
<trkpt lat="42.7425047" lon="-8.9602424">
<ele>266</ele>
<time>2015-08-29T18:56:33Z</time>
</trkpt>
<trkpt lat="42.7426058" lon="-8.9603951">
<ele>263</ele>
<time>2015-08-29T18:56:35Z</time>
</trkpt>
<trkpt lat="42.7426880" lon="-8.9605466">
<ele>260</ele>
<time>2015-08-29T18:56:37Z</time>
</trkpt>
<trkpt lat="42.7427851" lon="-8.9607305">
<ele>258</ele>
<time>2015-08-29T18:56:39Z</time>
</trkpt>
<trkpt lat="42.7428588" lon="-8.9609057">
<ele>256</ele>
<time>2015-08-29T18:56:41Z</time>
</trkpt>
<trkpt lat="42.7429065" lon="-8.9610372">
<ele>254</ele>
<time>2015-08-29T18:56:43Z</time>
</trkpt>
<trkpt lat="42.7429772" lon="-8.9611776">
<ele>252</ele>
<time>2015-08-29T18:56:45Z</time>
</trkpt>
<trkpt lat="42.7430936" lon="-8.9612940">
<ele>250</ele>
<time>2015-08-29T18:56:47Z</time>
</trkpt>
<trkpt lat="42.7432706" lon="-8.9613238">
<ele>248</ele>
<time>2015-08-29T18:56:49Z</time>
</trkpt>
<trkpt lat="42.7434574" lon="-8.9612992">
<ele>243</ele>
<time>2015-08-29T18:56:51Z</time>
</trkpt>
<trkpt lat="42.7436459" lon="-8.9612631">
<ele>240</ele>
<time>2015-08-29T18:56:53Z</time>
</trkpt>
<trkpt lat="42.7438311" lon="-8.9612136">
<ele>238</ele>
<time>2015-08-29T18:56:55Z</time>
</trkpt>
<trkpt lat="42.7440085" lon="-8.9610705">
<ele>237</ele>
<time>2015-08-29T18:56:57Z</time>
</trkpt>
<trkpt lat="42.7441559" lon="-8.9608471">
<ele>234</ele>
<time>2015-08-29T18:56:59Z</time>
</trkpt>
<trkpt lat="42.7442858" lon="-8.9605852">
<ele>231</ele>
<time>2015-08-29T18:57:01Z</time>
</trkpt>
<trkpt lat="42.7445472" lon="-8.9599599">
<ele>222</ele>
<time>2015-08-29T18:57:05Z</time>
</trkpt>
<trkpt lat="42.7446570" lon="-8.9596646">
<ele>219</ele>
<time>2015-08-29T18:57:07Z</time>
</trkpt>
<trkpt lat="42.7447627" lon="-8.9593691">
<ele>216</ele>
<time>2015-08-29T18:57:09Z</time>
</trkpt>
<trkpt lat="42.7448839" lon="-8.9591232">
<ele>215</ele>
<time>2015-08-29T18:57:11Z</time>
</trkpt>
<trkpt lat="42.7450017" lon="-8.9588691">
<ele>213</ele>
<time>2015-08-29T18:57:13Z</time>
</trkpt>
<trkpt lat="42.7451170" lon="-8.9585838">
<ele>211</ele>
<time>2015-08-29T18:57:15Z</time>
</trkpt>
<trkpt lat="42.7452056" lon="-8.9583011">
<ele>209</ele>
<time>2015-08-29T18:57:17Z</time>
</trkpt>
<trkpt lat="42.7452462" lon="-8.9579725">
<ele>207</ele>
<time>2015-08-29T18:57:19Z</time>
</trkpt>
<trkpt lat="42.7452990" lon="-8.9576642">
<ele>204</ele>
<time>2015-08-29T18:57:21Z</time>
</trkpt>
<trkpt lat="42.7454048" lon="-8.9573525">
<ele>201</ele>
<time>2015-08-29T18:57:23Z</time>
</trkpt>
<trkpt lat="42.7457965" lon="-8.9570453">
<ele>193</ele>
<time>2015-08-29T18:57:27Z</time>
</trkpt>
<trkpt lat="42.7459818" lon="-8.9570860">
<ele>190</ele>
<time>2015-08-29T18:57:29Z</time>
</trkpt>
<trkpt lat="42.7461303" lon="-8.9572201">
<ele>186</ele>
<time>2015-08-29T18:57:31Z</time>
</trkpt>
<trkpt lat="42.7462385" lon="-8.9573654">
<ele>182</ele>
<time>2015-08-29T18:57:33Z</time>
</trkpt>
<trkpt lat="42.7462746" lon="-8.9574887">
<ele>180</ele>
<time>2015-08-29T18:57:35Z</time>
</trkpt>
<trkpt lat="42.7462746" lon="-8.9576373">
<ele>177</ele>
<time>2015-08-29T18:57:37Z</time>
</trkpt>
<trkpt lat="42.7462765" lon="-8.9578036">
<ele>169</ele>
<time>2015-08-29T18:57:39Z</time>
</trkpt>
<trkpt lat="42.7462693" lon="-8.9579494">
<ele>163</ele>
<time>2015-08-29T18:57:41Z</time>
</trkpt>
<trkpt lat="42.7462553" lon="-8.9580742">
<ele>157</ele>
<time>2015-08-29T18:57:43Z</time>
</trkpt>
<trkpt lat="42.7462294" lon="-8.9581749">
<ele>145</ele>
<time>2015-08-29T18:57:45Z</time>
</trkpt>
<trkpt lat="42.7461935" lon="-8.9582786">
<ele>137</ele>
<time>2015-08-29T18:57:47Z</time>
</trkpt>
<trkpt lat="42.7461498" lon="-8.9583687">
<ele>136</ele>
<time>2015-08-29T18:57:49Z</time>
</trkpt>
<trkpt lat="42.7461185" lon="-8.9584431">
<ele>136</ele>
<time>2015-08-29T18:57:51Z</time>
</trkpt>
<trkpt lat="42.7461254" lon="-8.9584651">
<ele>136</ele>
<time>2015-08-29T18:57:53Z</time>
</trkpt>
<trkpt lat="42.7462996" lon="-8.9583393">
<ele>132</ele>
<time>2015-08-29T18:57:55Z</time>
</trkpt>
<trkpt lat="42.7463878" lon="-8.9580397">
<ele>120</ele>
<time>2015-08-29T18:57:57Z</time>
</trkpt>
<trkpt lat="42.7463062" lon="-8.9578301">
<ele>104</ele>
<time>2015-08-29T18:57:59Z</time>
</trkpt>
<trkpt lat="42.7461850" lon="-8.9577116">
<ele>100</ele>
<time>2015-08-29T18:58:01Z</time>
</trkpt>
<trkpt lat="42.7460977" lon="-8.9576282">
<ele>101</ele>
<time>2015-08-29T18:58:03Z</time>
</trkpt>
<trkpt lat="42.7460272" lon="-8.9574760">
<ele>105</ele>
<time>2015-08-29T18:58:05Z</time>
</trkpt>
<trkpt lat="42.7459663" lon="-8.9574459">
<ele>107</ele>
<time>2015-08-29T18:58:07Z</time>
</trkpt>
<trkpt lat="42.7459023" lon="-8.9575183">
<ele>103</ele>
<time>2015-08-29T18:58:09Z</time>
</trkpt>
<trkpt lat="42.7458644" lon="-8.9576474">
<ele>97</ele>
<time>2015-08-29T18:58:11Z</time>
</trkpt>
<trkpt lat="42.7458530" lon="-8.9577236">
<ele>96</ele>
<time>2015-08-29T18:58:13Z</time>
</trkpt>
<trkpt lat="42.7458530" lon="-8.9577236">
<ele>95</ele>
<time>2015-08-29T18:58:15Z</time>
</trkpt>
<trkpt lat="42.7461553" lon="-8.9575635">
<ele>77</ele>
<time>2015-08-29T18:58:17Z</time>
</trkpt>
<trkpt lat="42.7464260" lon="-8.9573493">
<ele>70</ele>
<time>2015-08-29T18:58:19Z</time>
</trkpt>
<trkpt lat="42.7466124" lon="-8.9571743">
<ele>68</ele>
<time>2015-08-29T18:58:21Z</time>
</trkpt>
<trkpt lat="42.7467491" lon="-8.9569221">
<ele>67</ele>
<time>2015-08-29T18:58:23Z</time>
</trkpt>
<trkpt lat="42.7467737" lon="-8.9565691">
<ele>68</ele>
<time>2015-08-29T18:58:25Z</time>
</trkpt>
<trkpt lat="42.7468031" lon="-8.9562551">
<ele>68</ele>
<time>2015-08-29T18:58:27Z</time>
</trkpt>
<trkpt lat="42.7468691" lon="-8.9559786">
<ele>71</ele>
<time>2015-08-29T18:58:29Z</time>
</trkpt>
<trkpt lat="42.7469925" lon="-8.9557284">
<ele>73</ele>
<time>2015-08-29T18:58:31Z</time>
</trkpt>
<trkpt lat="42.7471897" lon="-8.9555700">
<ele>76</ele>
<time>2015-08-29T18:58:33Z</time>
</trkpt>
<trkpt lat="42.7474129" lon="-8.9556019">
<ele>79</ele>
<time>2015-08-29T18:58:35Z</time>
</trkpt>
<trkpt lat="42.7475220" lon="-8.9558557">
<ele>78</ele>
<time>2015-08-29T18:58:37Z</time>
</trkpt>
<trkpt lat="42.7474593" lon="-8.9560654">
<ele>77</ele>
<time>2015-08-29T18:58:39Z</time>
</trkpt>
<trkpt lat="42.7473013" lon="-8.9561738">
<ele>71</ele>
<time>2015-08-29T18:58:41Z</time>
</trkpt>
<trkpt lat="42.7471902" lon="-8.9562152">
<ele>65</ele>
<time>2015-08-29T18:58:43Z</time>
</trkpt>
<trkpt lat="42.7470851" lon="-8.9562299">
<ele>63</ele>
<time>2015-08-29T18:58:45Z</time>
</trkpt>
<trkpt lat="42.7469489" lon="-8.9562382">
<ele>63</ele>
<time>2015-08-29T18:58:47Z</time>
</trkpt>
<trkpt lat="42.7468202" lon="-8.9562515">
<ele>61</ele>
<time>2015-08-29T18:58:49Z</time>
</trkpt>
<trkpt lat="42.7466953" lon="-8.9562703">
<ele>59</ele>
<time>2015-08-29T18:58:51Z</time>
</trkpt>
<trkpt lat="42.7465738" lon="-8.9563105">
<ele>57</ele>
<time>2015-08-29T18:58:53Z</time>
</trkpt>
<trkpt lat="42.7464855" lon="-8.9563593">
<ele>56</ele>
<time>2015-08-29T18:58:55Z</time>
</trkpt>
<trkpt lat="42.7464368" lon="-8.9563900">
<ele>56</ele>
<time>2015-08-29T18:58:57Z</time>
</trkpt>
<trkpt lat="42.7463906" lon="-8.9564088">
<ele>56</ele>
<time>2015-08-29T18:58:59Z</time>
</trkpt>
<trkpt lat="42.7463700" lon="-8.9564130">
<ele>56</ele>
<time>2015-08-29T18:59:01Z</time>
</trkpt>
<trkpt lat="42.7463700" lon="-8.9564130">
<ele>56</ele>
<time>2015-08-29T18:59:03Z</time>
</trkpt>
<trkpt lat="42.7463700" lon="-8.9564130">
<ele>56</ele>
<time>2015-08-29T18:59:05Z</time>
</trkpt>
<trkpt lat="42.7463700" lon="-8.9564130">
<ele>56</ele>
<time>2015-08-29T18:59:07Z</time>
</trkpt>
<trkpt lat="42.7463700" lon="-8.9564130">
<ele>56</ele>
<time>2015-08-29T18:59:09Z</time>
</trkpt>
<trkpt lat="42.7463700" lon="-8.9564130">
<ele>56</ele>
<time>2015-08-29T18:59:11Z</time>
</trkpt>
<trkpt lat="42.7463700" lon="-8.9564130">
<ele>56</ele>
<time>2015-08-29T18:59:13Z</time>
</trkpt>
<trkpt lat="42.7463700" lon="-8.9564130">
<ele>56</ele>
<time>2015-08-29T18:59:15Z</time>
</trkpt>
<trkpt lat="42.7463700" lon="-8.9564130">
<ele>56</ele>
<time>2015-08-29T18:59:17Z</time>
</trkpt>
<trkpt lat="42.7463700" lon="-8.9564130">
<ele>56</ele>
<time>2015-08-29T18:59:19Z</time>
</trkpt>
<trkpt lat="42.7463700" lon="-8.9564130">
<ele>56</ele>
<time>2015-08-29T18:59:21Z</time>
</trkpt>
<trkpt lat="42.7463700" lon="-8.9564130">
<ele>56</ele>
<time>2015-08-29T18:59:23Z</time>
</trkpt>
<trkpt lat="42.7463700" lon="-8.9564130">
<ele>56</ele>
<time>2015-08-29T18:59:25Z</time>
</trkpt>
<trkpt lat="42.7463700" lon="-8.9564130">
<ele>56</ele>
<time>2015-08-29T18:59:27Z</time>
</trkpt>
<trkpt lat="42.7463700" lon="-8.9564130">
<ele>56</ele>
<time>2015-08-29T18:59:29Z</time>
</trkpt>
<trkpt lat="42.7463700" lon="-8.9564130">
<ele>56</ele>
<time>2015-08-29T18:59:31Z</time>
</trkpt>
<trkpt lat="42.7463700" lon="-8.9564130">
<ele>56</ele>
<time>2015-08-29T18:59:33Z</time>
</trkpt>
<trkpt lat="42.7463700" lon="-8.9564130">
<ele>56</ele>
<time>2015-08-29T18:59:35Z</time>
</trkpt>
<trkpt lat="42.7463700" lon="-8.9564130">
<ele>56</ele>
<time>2015-08-29T18:59:37Z</time>
</trkpt>
<trkpt lat="42.7463700" lon="-8.9564130">
<ele>56</ele>
<time>2015-08-29T18:59:39Z</time>
</trkpt>
<trkpt lat="42.7463700" lon="-8.9564130">
<ele>56</ele>
<time>2015-08-29T18:59:41Z</time>
</trkpt>
<trkpt lat="42.7463700" lon="-8.9564130">
<ele>56</ele>
<time>2015-08-29T18:59:43Z</time>
</trkpt>
<trkpt lat="42.7463700" lon="-8.9564130">
<ele>56</ele>
<time>2015-08-29T18:59:45Z</time>
</trkpt>
<trkpt lat="42.7463700" lon="-8.9564130">
<ele>56</ele>
<time>2015-08-29T18:59:47Z</time>
</trkpt>
<trkpt lat="42.7463700" lon="-8.9564130">
<ele>56</ele>
<time>2015-08-29T18:59:49Z</time>
</trkpt>
<trkpt lat="42.7463700" lon="-8.9564130">
<ele>56</ele>
<time>2015-08-29T18:59:51Z</time>
</trkpt>
<trkpt lat="42.7463700" lon="-8.9564130">
<ele>56</ele>
<time>2015-08-29T18:59:53Z</time>
</trkpt>
<trkpt lat="42.7463700" lon="-8.9564130">
<ele>56</ele>
<time>2015-08-29T18:59:55Z</time>
</trkpt>
<trkpt lat="42.7463700" lon="-8.9564130">
<ele>56</ele>
<time>2015-08-29T18:59:57Z</time>
</trkpt>
<trkpt lat="42.7463700" lon="-8.9564130">
<ele>56</ele>
<time>2015-08-29T18:59:59Z</time>
</trkpt>
<trkpt lat="42.7463700" lon="-8.9564130">
<ele>56</ele>
<time>2015-08-29T19:00:01Z</time>
</trkpt>
<trkpt lat="42.7463700" lon="-8.9564130">
<ele>56</ele>
<time>2015-08-29T19:00:03Z</time>
</trkpt>
<trkpt lat="42.7463700" lon="-8.9564130">
<ele>56</ele>
<time>2015-08-29T19:00:05Z</time>
</trkpt>
<trkpt lat="42.7463700" lon="-8.9564130">
<ele>56</ele>
<time>2015-08-29T19:00:07Z</time>
</trkpt>
<trkpt lat="42.7463700" lon="-8.9564130">
<ele>56</ele>
<time>2015-08-29T19:00:09Z</time>
</trkpt>
<trkpt lat="42.7463700" lon="-8.9564130">
<ele>56</ele>
<time>2015-08-29T19:00:11Z</time>
</trkpt>
<trkpt lat="42.7463700" lon="-8.9564130">
<ele>56</ele>
<time>2015-08-29T19:00:13Z</time>
</trkpt>
<trkpt lat="42.7463700" lon="-8.9564130">
<ele>56</ele>
<time>2015-08-29T19:00:15Z</time>
</trkpt>
<trkpt lat="42.7463700" lon="-8.9564130">
<ele>56</ele>
<time>2015-08-29T19:00:17Z</time>
</trkpt>
<trkpt lat="42.7463700" lon="-8.9564130">
<ele>56</ele>
<time>2015-08-29T19:00:19Z</time>
</trkpt>
<trkpt lat="42.7463700" lon="-8.9564130">
<ele>56</ele>
<time>2015-08-29T19:00:21Z</time>
</trkpt>
<trkpt lat="42.7463700" lon="-8.9564130">
<ele>56</ele>
<time>2015-08-29T19:00:23Z</time>
</trkpt>
<trkpt lat="42.7463700" lon="-8.9564130">
<ele>56</ele>
<time>2015-08-29T19:00:25Z</time>
</trkpt>
<trkpt lat="42.7463700" lon="-8.9564130">
<ele>56</ele>
<time>2015-08-29T19:00:27Z</time>
</trkpt>
<trkpt lat="42.7463700" lon="-8.9564130">
<ele>57</ele>
<time>2015-08-29T19:00:29Z</time>
</trkpt>
<trkpt lat="42.7464343" lon="-8.9564242">
<ele>57</ele>
<time>2015-08-29T19:00:31Z</time>
</trkpt>
<trkpt lat="42.7464343" lon="-8.9564242">
<ele>57</ele>
<time>2015-08-29T19:00:33Z</time>
</trkpt>
<trkpt lat="42.7464343" lon="-8.9564242">
<ele>57</ele>
<time>2015-08-29T19:00:35Z</time>
</trkpt>
<trkpt lat="42.7464343" lon="-8.9564242">
<ele>57</ele>
<time>2015-08-29T19:00:37Z</time>
</trkpt>
<trkpt lat="42.7464343" lon="-8.9564242">
<ele>57</ele>
<time>2015-08-29T19:00:39Z</time>
</trkpt>
<trkpt lat="42.7464343" lon="-8.9564242">
<ele>57</ele>
<time>2015-08-29T19:00:41Z</time>
</trkpt>
<trkpt lat="42.7464343" lon="-8.9564242">
<ele>57</ele>
<time>2015-08-29T19:00:43Z</time>
</trkpt>
<trkpt lat="42.7464343" lon="-8.9564242">
<ele>57</ele>
<time>2015-08-29T19:00:45Z</time>
</trkpt>
<trkpt lat="42.7464343" lon="-8.9564242">
<ele>57</ele>
<time>2015-08-29T19:00:47Z</time>
</trkpt>
<trkpt lat="42.7464343" lon="-8.9564242">
<ele>57</ele>
<time>2015-08-29T19:00:49Z</time>
</trkpt>
<trkpt lat="42.7464343" lon="-8.9564242">
<ele>57</ele>
<time>2015-08-29T19:00:51Z</time>
</trkpt>
<trkpt lat="42.7464343" lon="-8.9564242">
<ele>57</ele>
<time>2015-08-29T19:00:53Z</time>
</trkpt>
<trkpt lat="42.7464343" lon="-8.9564242">
<ele>57</ele>
<time>2015-08-29T19:00:55Z</time>
</trkpt>
<trkpt lat="42.7464343" lon="-8.9564242">
<ele>57</ele>
<time>2015-08-29T19:00:57Z</time>
</trkpt>
<trkpt lat="42.7464343" lon="-8.9564242">
<ele>57</ele>
<time>2015-08-29T19:00:59Z</time>
</trkpt>
<trkpt lat="42.7464343" lon="-8.9564242">
<ele>57</ele>
<time>2015-08-29T19:01:01Z</time>
</trkpt>
<trkpt lat="42.7464343" lon="-8.9564242">
<ele>57</ele>
<time>2015-08-29T19:01:03Z</time>
</trkpt>
<trkpt lat="42.7464343" lon="-8.9564242">
<ele>57</ele>
<time>2015-08-29T19:01:05Z</time>
</trkpt>
<trkpt lat="42.7464343" lon="-8.9564242">
<ele>57</ele>
<time>2015-08-29T19:01:07Z</time>
</trkpt>
<trkpt lat="42.7464343" lon="-8.9564242">
<ele>57</ele>
<time>2015-08-29T19:01:09Z</time>
</trkpt>
<trkpt lat="42.7464343" lon="-8.9564242">
<ele>57</ele>
<time>2015-08-29T19:01:11Z</time>
</trkpt>
<trkpt lat="42.7464343" lon="-8.9564242">
<ele>57</ele>
<time>2015-08-29T19:01:13Z</time>
</trkpt>
<trkpt lat="42.7464343" lon="-8.9564242">
<ele>57</ele>
<time>2015-08-29T19:01:15Z</time>
</trkpt>
<trkpt lat="42.7464343" lon="-8.9564242">
<ele>57</ele>
<time>2015-08-29T19:01:17Z</time>
</trkpt>
<trkpt lat="42.7464343" lon="-8.9564242">
<ele>57</ele>
<time>2015-08-29T19:01:19Z</time>
</trkpt>
<trkpt lat="42.7464343" lon="-8.9564242">
<ele>57</ele>
<time>2015-08-29T19:01:21Z</time>
</trkpt>
<trkpt lat="42.7464343" lon="-8.9564242">
<ele>57</ele>
<time>2015-08-29T19:01:23Z</time>
</trkpt>
<trkpt lat="42.7464343" lon="-8.9564242">
<ele>57</ele>
<time>2015-08-29T19:01:25Z</time>
</trkpt>
<trkpt lat="42.7464343" lon="-8.9564242">
<ele>57</ele>
<time>2015-08-29T19:01:27Z</time>
</trkpt>
<trkpt lat="42.7464343" lon="-8.9564242">
<ele>57</ele>
<time>2015-08-29T19:01:29Z</time>
</trkpt>
<trkpt lat="42.7464343" lon="-8.9564242">
<ele>57</ele>
<time>2015-08-29T19:01:31Z</time>
</trkpt>
<trkpt lat="42.7464343" lon="-8.9564242">
<ele>57</ele>
<time>2015-08-29T19:01:33Z</time>
</trkpt>
<trkpt lat="42.7464343" lon="-8.9564242">
<ele>57</ele>
<time>2015-08-29T19:01:35Z</time>
</trkpt>
<trkpt lat="42.7464343" lon="-8.9564242">
<ele>57</ele>
<time>2015-08-29T19:01:37Z</time>
</trkpt>
<trkpt lat="42.7464343" lon="-8.9564242">
<ele>57</ele>
<time>2015-08-29T19:01:39Z</time>
</trkpt>
<trkpt lat="42.7464343" lon="-8.9564242">
<ele>57</ele>
<time>2015-08-29T19:01:41Z</time>
</trkpt>
<trkpt lat="42.7464343" lon="-8.9564242">
<ele>57</ele>
<time>2015-08-29T19:01:43Z</time>
</trkpt>
<trkpt lat="42.7464343" lon="-8.9564242">
<ele>57</ele>
<time>2015-08-29T19:01:45Z</time>
</trkpt>
<trkpt lat="42.7464343" lon="-8.9564242">
<ele>57</ele>
<time>2015-08-29T19:01:47Z</time>
</trkpt>
<trkpt lat="42.7464343" lon="-8.9564242">
<ele>57</ele>
<time>2015-08-29T19:01:49Z</time>
</trkpt>
<trkpt lat="42.7464343" lon="-8.9564242">
<ele>57</ele>
<time>2015-08-29T19:01:51Z</time>
</trkpt>
<trkpt lat="42.7464343" lon="-8.9564242">
<ele>58</ele>
<time>2015-08-29T19:01:53Z</time>
</trkpt>
<trkpt lat="42.7464343" lon="-8.9564242">
<ele>58</ele>
<time>2015-08-29T19:01:55Z</time>
</trkpt>
<trkpt lat="42.7464343" lon="-8.9564242">
<ele>58</ele>
<time>2015-08-29T19:01:57Z</time>
</trkpt>
<trkpt lat="42.7464343" lon="-8.9564242">
<ele>58</ele>
<time>2015-08-29T19:01:59Z</time>
</trkpt>
<trkpt lat="42.7464343" lon="-8.9564242">
<ele>58</ele>
<time>2015-08-29T19:02:01Z</time>
</trkpt>
<trkpt lat="42.7464343" lon="-8.9564242">
<ele>58</ele>
<time>2015-08-29T19:02:03Z</time>
</trkpt>
<trkpt lat="42.7464343" lon="-8.9564242">
<ele>58</ele>
<time>2015-08-29T19:02:05Z</time>
</trkpt>
<trkpt lat="42.7464343" lon="-8.9564242">
<ele>58</ele>
<time>2015-08-29T19:02:07Z</time>
</trkpt>
<trkpt lat="42.7464343" lon="-8.9564242">
<ele>58</ele>
<time>2015-08-29T19:02:09Z</time>
</trkpt>
<trkpt lat="42.7464343" lon="-8.9564242">
<ele>58</ele>
<time>2015-08-29T19:02:11Z</time>
</trkpt>
<trkpt lat="42.7464343" lon="-8.9564242">
<ele>58</ele>
<time>2015-08-29T19:02:13Z</time>
</trkpt>
<trkpt lat="42.7464343" lon="-8.9564242">
<ele>58</ele>
<time>2015-08-29T19:02:15Z</time>
</trkpt>
<trkpt lat="42.7464343" lon="-8.9564242">
<ele>58</ele>
<time>2015-08-29T19:02:17Z</time>
</trkpt>
<trkpt lat="42.7464343" lon="-8.9564242">
<ele>58</ele>
<time>2015-08-29T19:02:19Z</time>
</trkpt>
<trkpt lat="42.7464343" lon="-8.9564242">
<ele>58</ele>
<time>2015-08-29T19:02:21Z</time>
</trkpt>
<trkpt lat="42.7464343" lon="-8.9564242">
<ele>58</ele>
<time>2015-08-29T19:02:23Z</time>
</trkpt>
<trkpt lat="42.7464343" lon="-8.9564242">
<ele>58</ele>
<time>2015-08-29T19:02:25Z</time>
</trkpt>
<trkpt lat="42.7464343" lon="-8.9564242">
<ele>58</ele>
<time>2015-08-29T19:02:27Z</time>
</trkpt>
<trkpt lat="42.7464343" lon="-8.9564242">
<ele>58</ele>
<time>2015-08-29T19:02:29Z</time>
</trkpt>
<trkpt lat="42.7464343" lon="-8.9564242">
<ele>58</ele>
<time>2015-08-29T19:02:31Z</time>
</trkpt>
<trkpt lat="42.7464343" lon="-8.9564242">
<ele>58</ele>
<time>2015-08-29T19:02:33Z</time>
</trkpt>
<trkpt lat="42.7464343" lon="-8.9564242">
<ele>58</ele>
<time>2015-08-29T19:02:35Z</time>
</trkpt>
<trkpt lat="42.7464343" lon="-8.9564242">
<ele>58</ele>
<time>2015-08-29T19:02:37Z</time>
</trkpt>
<trkpt lat="42.7464343" lon="-8.9564242">
<ele>58</ele>
<time>2015-08-29T19:02:39Z</time>
</trkpt>
<trkpt lat="42.7464343" lon="-8.9564242">
<ele>58</ele>
<time>2015-08-29T19:02:41Z</time>
</trkpt>
<trkpt lat="42.7464343" lon="-8.9564242">
<ele>58</ele>
<time>2015-08-29T19:02:43Z</time>
</trkpt>
<trkpt lat="42.7464343" lon="-8.9564242">
<ele>58</ele>
<time>2015-08-29T19:02:45Z</time>
</trkpt>
<trkpt lat="42.7464343" lon="-8.9564242">
<ele>58</ele>
<time>2015-08-29T19:02:47Z</time>
</trkpt>
<trkpt lat="42.7464343" lon="-8.9564242">
<ele>58</ele>
<time>2015-08-29T19:02:49Z</time>
</trkpt>
<trkpt lat="42.7464343" lon="-8.9564242">
<ele>58</ele>
<time>2015-08-29T19:02:51Z</time>
</trkpt>
<trkpt lat="42.7464343" lon="-8.9564242">
<ele>58</ele>
<time>2015-08-29T19:02:53Z</time>
</trkpt>
<trkpt lat="42.7464343" lon="-8.9564242">
<ele>58</ele>
<time>2015-08-29T19:02:55Z</time>
</trkpt>
<trkpt lat="42.7464343" lon="-8.9564242">
<ele>58</ele>
<time>2015-08-29T19:02:57Z</time>
</trkpt>
<trkpt lat="42.7464343" lon="-8.9564242">
<ele>58</ele>
<time>2015-08-29T19:02:59Z</time>
</trkpt>
<trkpt lat="42.7464343" lon="-8.9564242">
<ele>58</ele>
<time>2015-08-29T19:03:01Z</time>
</trkpt>
<trkpt lat="42.7464343" lon="-8.9564242">
<ele>58</ele>
<time>2015-08-29T19:03:03Z</time>
</trkpt>
<trkpt lat="42.7464343" lon="-8.9564242">
<ele>58</ele>
<time>2015-08-29T19:03:05Z</time>
</trkpt>
<trkpt lat="42.7464343" lon="-8.9564242">
<ele>58</ele>
<time>2015-08-29T19:03:07Z</time>
</trkpt>
<trkpt lat="42.7464343" lon="-8.9564242">
<ele>58</ele>
<time>2015-08-29T19:03:09Z</time>
</trkpt>
<trkpt lat="42.7464343" lon="-8.9564242">
<ele>58</ele>
<time>2015-08-29T19:03:11Z</time>
</trkpt>
<trkpt lat="42.7464343" lon="-8.9564242">
<ele>58</ele>
<time>2015-08-29T19:03:13Z</time>
</trkpt>
<trkpt lat="42.7464343" lon="-8.9564242">
<ele>58</ele>
<time>2015-08-29T19:03:17Z</time>
</trkpt>
<trkpt lat="42.7464343" lon="-8.9564242">
<ele>58</ele>
<time>2015-08-29T19:03:19Z</time>
</trkpt>
<trkpt lat="42.7464343" lon="-8.9564242">
<ele>58</ele>
<time>2015-08-29T19:03:21Z</time>
</trkpt>
<trkpt lat="42.7464343" lon="-8.9564242">
<ele>58</ele>
<time>2015-08-29T19:03:23Z</time>
</trkpt>
<trkpt lat="42.7464343" lon="-8.9564242">
<ele>58</ele>
<time>2015-08-29T19:03:25Z</time>
</trkpt>
<trkpt lat="42.7464343" lon="-8.9564242">
<ele>58</ele>
<time>2015-08-29T19:03:28Z</time>
</trkpt>
<trkpt lat="42.7464343" lon="-8.9564242">
<ele>58</ele>
<time>2015-08-29T19:03:30Z</time>
</trkpt>
<trkpt lat="42.7464343" lon="-8.9564242">
<ele>58</ele>
<time>2015-08-29T19:03:32Z</time>
</trkpt>
<trkpt lat="42.7464343" lon="-8.9564242">
<ele>58</ele>
<time>2015-08-29T19:03:34Z</time>
</trkpt>
<trkpt lat="42.7464343" lon="-8.9564242">
<ele>58</ele>
<time>2015-08-29T19:03:36Z</time>
</trkpt>
<trkpt lat="42.7464343" lon="-8.9564242">
<ele>57</ele>
<time>2015-08-29T19:03:38Z</time>
</trkpt>
<trkpt lat="42.7464343" lon="-8.9564242">
<ele>57</ele>
<time>2015-08-29T19:03:40Z</time>
</trkpt>
<trkpt lat="42.7464343" lon="-8.9564242">
<ele>57</ele>
<time>2015-08-29T19:03:42Z</time>
</trkpt>
<trkpt lat="42.7464343" lon="-8.9564242">
<ele>57</ele>
<time>2015-08-29T19:03:44Z</time>
</trkpt>
<trkpt lat="42.7464343" lon="-8.9564242">
<ele>57</ele>
<time>2015-08-29T19:03:46Z</time>
</trkpt>
<trkpt lat="42.7464343" lon="-8.9564242">
<ele>57</ele>
<time>2015-08-29T19:03:48Z</time>
</trkpt>
<trkpt lat="42.7464343" lon="-8.9564242">
<ele>57</ele>
<time>2015-08-29T19:03:50Z</time>
</trkpt>
<trkpt lat="42.7464343" lon="-8.9564242">
<ele>57</ele>
<time>2015-08-29T19:03:52Z</time>
</trkpt>
<trkpt lat="42.7464343" lon="-8.9564242">
<ele>57</ele>
<time>2015-08-29T19:03:54Z</time>
</trkpt>
<trkpt lat="42.7464139" lon="-8.9564538">
<ele>57</ele>
<time>2015-08-29T19:03:56Z</time>
</trkpt>
<trkpt lat="42.7464066" lon="-8.9564547">
<ele>57</ele>
<time>2015-08-29T19:03:58Z</time>
</trkpt>
<trkpt lat="42.7463975" lon="-8.9564572">
<ele>57</ele>
<time>2015-08-29T19:04:00Z</time>
</trkpt>
<trkpt lat="42.7463891" lon="-8.9564605">
<ele>57</ele>
<time>2015-08-29T19:04:02Z</time>
</trkpt>
<trkpt lat="42.7463822" lon="-8.9564627">
<ele>57</ele>
<time>2015-08-29T19:04:04Z</time>
</trkpt>
<trkpt lat="42.7463753" lon="-8.9564596">
<ele>57</ele>
<time>2015-08-29T19:04:06Z</time>
</trkpt>
<trkpt lat="42.7463696" lon="-8.9564575">
<ele>57</ele>
<time>2015-08-29T19:04:08Z</time>
</trkpt>
<trkpt lat="42.7463695" lon="-8.9564553">
<ele>57</ele>
<time>2015-08-29T19:04:10Z</time>
</trkpt>
<trkpt lat="42.7463744" lon="-8.9564540">
<ele>57</ele>
<time>2015-08-29T19:04:12Z</time>
</trkpt>
<trkpt lat="42.7463829" lon="-8.9564534">
<ele>57</ele>
<time>2015-08-29T19:04:14Z</time>
</trkpt>
<trkpt lat="42.7463995" lon="-8.9564509">
<ele>57</ele>
<time>2015-08-29T19:04:16Z</time>
</trkpt>
<trkpt lat="42.7464032" lon="-8.9564659">
<ele>58</ele>
<time>2015-08-29T19:04:18Z</time>
</trkpt>
<trkpt lat="42.7464033" lon="-8.9564637">
<ele>58</ele>
<time>2015-08-29T19:04:20Z</time>
</trkpt>
<trkpt lat="42.7463951" lon="-8.9564570">
<ele>58</ele>
<time>2015-08-29T19:04:22Z</time>
</trkpt>
<trkpt lat="42.7463823" lon="-8.9564525">
<ele>58</ele>
<time>2015-08-29T19:04:24Z</time>
</trkpt>
<trkpt lat="42.7463702" lon="-8.9564469">
<ele>58</ele>
<time>2015-08-29T19:04:26Z</time>
</trkpt>
<trkpt lat="42.7463591" lon="-8.9564425">
<ele>58</ele>
<time>2015-08-29T19:04:28Z</time>
</trkpt>
<trkpt lat="42.7463543" lon="-8.9564358">
<ele>57</ele>
<time>2015-08-29T19:04:30Z</time>
</trkpt>
<trkpt lat="42.7463544" lon="-8.9564273">
<ele>57</ele>
<time>2015-08-29T19:04:32Z</time>
</trkpt>
<trkpt lat="42.7463516" lon="-8.9564231">
<ele>57</ele>
<time>2015-08-29T19:04:34Z</time>
</trkpt>
<trkpt lat="42.7463578" lon="-8.9564285">
<ele>57</ele>
<time>2015-08-29T19:04:36Z</time>
</trkpt>
<trkpt lat="42.7463665" lon="-8.9564337">
<ele>57</ele>
<time>2015-08-29T19:04:38Z</time>
</trkpt>
<trkpt lat="42.7463747" lon="-8.9564424">
<ele>57</ele>
<time>2015-08-29T19:04:40Z</time>
</trkpt>
<trkpt lat="42.7463814" lon="-8.9564519">
<ele>57</ele>
<time>2015-08-29T19:04:42Z</time>
</trkpt>
<trkpt lat="42.7463880" lon="-8.9564570">
<ele>57</ele>
<time>2015-08-29T19:04:44Z</time>
</trkpt>
<trkpt lat="42.7463913" lon="-8.9564601">
<ele>57</ele>
<time>2015-08-29T19:04:46Z</time>
</trkpt>
<trkpt lat="42.7463931" lon="-8.9564640">
<ele>57</ele>
<time>2015-08-29T19:04:48Z</time>
</trkpt>
<trkpt lat="42.7463964" lon="-8.9564679">
<ele>57</ele>
<time>2015-08-29T19:04:50Z</time>
</trkpt>
<trkpt lat="42.7464010" lon="-8.9564712">
<ele>57</ele>
<time>2015-08-29T19:04:52Z</time>
</trkpt>
<trkpt lat="42.7464076" lon="-8.9564757">
<ele>57</ele>
<time>2015-08-29T19:04:54Z</time>
</trkpt>
<trkpt lat="42.7464163" lon="-8.9564726">
<ele>57</ele>
<time>2015-08-29T19:04:56Z</time>
</trkpt>
<trkpt lat="42.7464215" lon="-8.9564609">
<ele>57</ele>
<time>2015-08-29T19:04:58Z</time>
</trkpt>
<trkpt lat="42.7464297" lon="-8.9564522">
<ele>57</ele>
<time>2015-08-29T19:05:00Z</time>
</trkpt>
<trkpt lat="42.7464341" lon="-8.9564436">
<ele>57</ele>
<time>2015-08-29T19:05:02Z</time>
</trkpt>
<trkpt lat="42.7464359" lon="-8.9564370">
<ele>57</ele>
<time>2015-08-29T19:05:04Z</time>
</trkpt>
<trkpt lat="42.7464368" lon="-8.9564354">
<ele>57</ele>
<time>2015-08-29T19:05:06Z</time>
</trkpt>
<trkpt lat="42.7464384" lon="-8.9564339">
<ele>57</ele>
<time>2015-08-29T19:05:08Z</time>
</trkpt>
<trkpt lat="42.7464419" lon="-8.9564349">
<ele>57</ele>
<time>2015-08-29T19:05:10Z</time>
</trkpt>
<trkpt lat="42.7464421" lon="-8.9564377">
<ele>57</ele>
<time>2015-08-29T19:05:12Z</time>
</trkpt>
<trkpt lat="42.7464362" lon="-8.9564413">
<ele>57</ele>
<time>2015-08-29T19:05:14Z</time>
</trkpt>
<trkpt lat="42.7464264" lon="-8.9564430">
<ele>57</ele>
<time>2015-08-29T19:05:16Z</time>
</trkpt>
<trkpt lat="42.7464197" lon="-8.9564453">
<ele>57</ele>
<time>2015-08-29T19:05:18Z</time>
</trkpt>
<trkpt lat="42.7464154" lon="-8.9564477">
<ele>57</ele>
<time>2015-08-29T19:05:20Z</time>
</trkpt>
<trkpt lat="42.7464127" lon="-8.9564500">
<ele>57</ele>
<time>2015-08-29T19:05:22Z</time>
</trkpt>
<trkpt lat="42.7464104" lon="-8.9564504">
<ele>57</ele>
<time>2015-08-29T19:05:24Z</time>
</trkpt>
<trkpt lat="42.7464093" lon="-8.9564533">
<ele>57</ele>
<time>2015-08-29T19:05:26Z</time>
</trkpt>
<trkpt lat="42.7464100" lon="-8.9564535">
<ele>57</ele>
<time>2015-08-29T19:05:28Z</time>
</trkpt>
<trkpt lat="42.7464111" lon="-8.9564486">
<ele>57</ele>
<time>2015-08-29T19:05:30Z</time>
</trkpt>
<trkpt lat="42.7464099" lon="-8.9564383">
<ele>57</ele>
<time>2015-08-29T19:05:32Z</time>
</trkpt>
<trkpt lat="42.7464024" lon="-8.9564280">
<ele>57</ele>
<time>2015-08-29T19:05:34Z</time>
</trkpt>
<trkpt lat="42.7463941" lon="-8.9564228">
<ele>57</ele>
<time>2015-08-29T19:05:36Z</time>
</trkpt>
<trkpt lat="42.7463884" lon="-8.9564184">
<ele>57</ele>
<time>2015-08-29T19:05:38Z</time>
</trkpt>
<trkpt lat="42.7463842" lon="-8.9564174">
<ele>57</ele>
<time>2015-08-29T19:05:40Z</time>
</trkpt>
<trkpt lat="42.7463828" lon="-8.9564199">
<ele>57</ele>
<time>2015-08-29T19:05:42Z</time>
</trkpt>
<trkpt lat="42.7463859" lon="-8.9564201">
<ele>57</ele>
<time>2015-08-29T19:05:44Z</time>
</trkpt>
<trkpt lat="42.7463890" lon="-8.9564196">
<ele>57</ele>
<time>2015-08-29T19:05:46Z</time>
</trkpt>
<trkpt lat="42.7463922" lon="-8.9564169">
<ele>57</ele>
<time>2015-08-29T19:05:48Z</time>
</trkpt>
<trkpt lat="42.7463945" lon="-8.9564130">
<ele>57</ele>
<time>2015-08-29T19:05:50Z</time>
</trkpt>
<trkpt lat="42.7463966" lon="-8.9564140">
<ele>56</ele>
<time>2015-08-29T19:05:52Z</time>
</trkpt>
<trkpt lat="42.7463976" lon="-8.9564146">
<ele>56</ele>
<time>2015-08-29T19:05:54Z</time>
</trkpt>
<trkpt lat="42.7463965" lon="-8.9564160">
<ele>56</ele>
<time>2015-08-29T19:05:56Z</time>
</trkpt>
<trkpt lat="42.7463918" lon="-8.9564195">
<ele>56</ele>
<time>2015-08-29T19:05:58Z</time>
</trkpt>
<trkpt lat="42.7463855" lon="-8.9564245">
<ele>56</ele>
<time>2015-08-29T19:06:00Z</time>
</trkpt>
<trkpt lat="42.7463769" lon="-8.9564288">
<ele>56</ele>
<time>2015-08-29T19:06:02Z</time>
</trkpt>
<trkpt lat="42.7463729" lon="-8.9564337">
<ele>56</ele>
<time>2015-08-29T19:06:04Z</time>
</trkpt>
<trkpt lat="42.7463714" lon="-8.9564392">
<ele>56</ele>
<time>2015-08-29T19:06:06Z</time>
</trkpt>
<trkpt lat="42.7463734" lon="-8.9564408">
<ele>56</ele>
<time>2015-08-29T19:06:08Z</time>
</trkpt>
<trkpt lat="42.7463755" lon="-8.9564410">
<ele>56</ele>
<time>2015-08-29T19:06:10Z</time>
</trkpt>
<trkpt lat="42.7463720" lon="-8.9564414">
<ele>56</ele>
<time>2015-08-29T19:06:12Z</time>
</trkpt>
<trkpt lat="42.7463705" lon="-8.9564410">
<ele>56</ele>
<time>2015-08-29T19:06:14Z</time>
</trkpt>
<trkpt lat="42.7463698" lon="-8.9564421">
<ele>56</ele>
<time>2015-08-29T19:06:16Z</time>
</trkpt>
<trkpt lat="42.7463749" lon="-8.9564456">
<ele>56</ele>
<time>2015-08-29T19:06:18Z</time>
</trkpt>
<trkpt lat="42.7463804" lon="-8.9564486">
<ele>56</ele>
<time>2015-08-29T19:06:20Z</time>
</trkpt>
<trkpt lat="42.7463872" lon="-8.9564518">
<ele>56</ele>
<time>2015-08-29T19:06:22Z</time>
</trkpt>
<trkpt lat="42.7463946" lon="-8.9564514">
<ele>56</ele>
<time>2015-08-29T19:06:24Z</time>
</trkpt>
<trkpt lat="42.7463995" lon="-8.9564517">
<ele>56</ele>
<time>2015-08-29T19:06:26Z</time>
</trkpt>
<trkpt lat="42.7464048" lon="-8.9564512">
<ele>56</ele>
<time>2015-08-29T19:06:28Z</time>
</trkpt>
<trkpt lat="42.7464127" lon="-8.9564473">
<ele>56</ele>
<time>2015-08-29T19:06:30Z</time>
</trkpt>
<trkpt lat="42.7464136" lon="-8.9564474">
<ele>56</ele>
<time>2015-08-29T19:06:32Z</time>
</trkpt>
<trkpt lat="42.7464143" lon="-8.9564469">
<ele>56</ele>
<time>2015-08-29T19:06:34Z</time>
</trkpt>
<trkpt lat="42.7464087" lon="-8.9564541">
<ele>56</ele>
<time>2015-08-29T19:06:36Z</time>
</trkpt>
<trkpt lat="42.7463919" lon="-8.9564619">
<ele>56</ele>
<time>2015-08-29T19:06:38Z</time>
</trkpt>
<trkpt lat="42.7463797" lon="-8.9564750">
<ele>56</ele>
<time>2015-08-29T19:06:40Z</time>
</trkpt>
<trkpt lat="42.7463715" lon="-8.9564903">
<ele>56</ele>
<time>2015-08-29T19:06:42Z</time>
</trkpt>
<trkpt lat="42.7463630" lon="-8.9565071">
<ele>56</ele>
<time>2015-08-29T19:06:45Z</time>
</trkpt>
<trkpt lat="42.7463583" lon="-8.9565153">
<ele>56</ele>
<time>2015-08-29T19:06:48Z</time>
</trkpt>
<trkpt lat="42.7463551" lon="-8.9565195">
<ele>56</ele>
<time>2015-08-29T19:06:50Z</time>
</trkpt>
<trkpt lat="42.7463525" lon="-8.9565230">
<ele>56</ele>
<time>2015-08-29T19:06:52Z</time>
</trkpt>
<trkpt lat="42.7463490" lon="-8.9565221">
<ele>56</ele>
<time>2015-08-29T19:06:54Z</time>
</trkpt>
<trkpt lat="42.7463453" lon="-8.9565201">
<ele>56</ele>
<time>2015-08-29T19:06:56Z</time>
</trkpt>
<trkpt lat="42.7463454" lon="-8.9565241">
<ele>56</ele>
<time>2015-08-29T19:06:58Z</time>
</trkpt>
<trkpt lat="42.7463373" lon="-8.9565247">
<ele>56</ele>
<time>2015-08-29T19:07:00Z</time>
</trkpt>
<trkpt lat="42.7463291" lon="-8.9565209">
<ele>56</ele>
<time>2015-08-29T19:07:02Z</time>
</trkpt>
<trkpt lat="42.7463187" lon="-8.9565311">
<ele>56</ele>
<time>2015-08-29T19:07:04Z</time>
</trkpt>
<trkpt lat="42.7463045" lon="-8.9565392">
<ele>56</ele>
<time>2015-08-29T19:07:06Z</time>
</trkpt>
<trkpt lat="42.7462985" lon="-8.9565443">
<ele>56</ele>
<time>2015-08-29T19:07:08Z</time>
</trkpt>
<trkpt lat="42.7462918" lon="-8.9565527">
<ele>56</ele>
<time>2015-08-29T19:07:10Z</time>
</trkpt>
<trkpt lat="42.7462752" lon="-8.9565643">
<ele>56</ele>
<time>2015-08-29T19:07:12Z</time>
</trkpt>
<trkpt lat="42.7462588" lon="-8.9565728">
<ele>56</ele>
<time>2015-08-29T19:07:14Z</time>
</trkpt>
<trkpt lat="42.7462418" lon="-8.9565773">
<ele>56</ele>
<time>2015-08-29T19:07:16Z</time>
</trkpt>
<trkpt lat="42.7462193" lon="-8.9565765">
<ele>56</ele>
<time>2015-08-29T19:07:18Z</time>
</trkpt>
<trkpt lat="42.7462017" lon="-8.9565774">
<ele>56</ele>
<time>2015-08-29T19:07:20Z</time>
</trkpt>
<trkpt lat="42.7461825" lon="-8.9565809">
<ele>56</ele>
<time>2015-08-29T19:07:22Z</time>
</trkpt>
<trkpt lat="42.7461684" lon="-8.9565835">
<ele>56</ele>
<time>2015-08-29T19:07:24Z</time>
</trkpt>
<trkpt lat="42.7461558" lon="-8.9565833">
<ele>56</ele>
<time>2015-08-29T19:07:26Z</time>
</trkpt>
<trkpt lat="42.7461396" lon="-8.9565906">
<ele>56</ele>
<time>2015-08-29T19:07:28Z</time>
</trkpt>
<trkpt lat="42.7461148" lon="-8.9565935">
<ele>56</ele>
<time>2015-08-29T19:07:30Z</time>
</trkpt>
<trkpt lat="42.7460953" lon="-8.9565904">
<ele>56</ele>
<time>2015-08-29T19:07:32Z</time>
</trkpt>
<trkpt lat="42.7460753" lon="-8.9565847">
<ele>56</ele>
<time>2015-08-29T19:07:34Z</time>
</trkpt>
<trkpt lat="42.7460418" lon="-8.9565705">
<ele>56</ele>
<time>2015-08-29T19:07:36Z</time>
</trkpt>
<trkpt lat="42.7460208" lon="-8.9565584">
<ele>55</ele>
<time>2015-08-29T19:07:38Z</time>
</trkpt>
<trkpt lat="42.7460084" lon="-8.9565442">
<ele>55</ele>
<time>2015-08-29T19:07:40Z</time>
</trkpt>
<trkpt lat="42.7460126" lon="-8.9565276">
<ele>55</ele>
<time>2015-08-29T19:07:42Z</time>
</trkpt>
<trkpt lat="42.7460171" lon="-8.9565169">
<ele>55</ele>
<time>2015-08-29T19:07:44Z</time>
</trkpt>
<trkpt lat="42.7460198" lon="-8.9565157">
<ele>55</ele>
<time>2015-08-29T19:07:46Z</time>
</trkpt>
<trkpt lat="42.7460247" lon="-8.9565200">
<ele>55</ele>
<time>2015-08-29T19:07:48Z</time>
</trkpt>
<trkpt lat="42.7460267" lon="-8.9565259">
<ele>55</ele>
<time>2015-08-29T19:07:50Z</time>
</trkpt>
<trkpt lat="42.7460263" lon="-8.9565307">
<ele>55</ele>
<time>2015-08-29T19:07:52Z</time>
</trkpt>
<trkpt lat="42.7460245" lon="-8.9565296">
<ele>55</ele>
<time>2015-08-29T19:07:54Z</time>
</trkpt>
<trkpt lat="42.7460297" lon="-8.9565114">
<ele>55</ele>
<time>2015-08-29T19:07:57Z</time>
</trkpt>
<trkpt lat="42.7460359" lon="-8.9565027">
<ele>55</ele>
<time>2015-08-29T19:07:59Z</time>
</trkpt>
<trkpt lat="42.7460386" lon="-8.9564953">
<ele>55</ele>
<time>2015-08-29T19:08:01Z</time>
</trkpt>
<trkpt lat="42.7460394" lon="-8.9564911">
<ele>55</ele>
<time>2015-08-29T19:08:03Z</time>
</trkpt>
<trkpt lat="42.7460398" lon="-8.9564924">
<ele>54</ele>
<time>2015-08-29T19:08:05Z</time>
</trkpt>
<trkpt lat="42.7460374" lon="-8.9565013">
<ele>54</ele>
<time>2015-08-29T19:08:07Z</time>
</trkpt>
<trkpt lat="42.7460316" lon="-8.9565132">
<ele>54</ele>
<time>2015-08-29T19:08:09Z</time>
</trkpt>
<trkpt lat="42.7460255" lon="-8.9565231">
<ele>54</ele>
<time>2015-08-29T19:08:11Z</time>
</trkpt>
<trkpt lat="42.7460213" lon="-8.9565297">
<ele>54</ele>
<time>2015-08-29T19:08:13Z</time>
</trkpt>
<trkpt lat="42.7460198" lon="-8.9565251">
<ele>54</ele>
<time>2015-08-29T19:08:15Z</time>
</trkpt>
<trkpt lat="42.7460202" lon="-8.9565243">
<ele>54</ele>
<time>2015-08-29T19:08:17Z</time>
</trkpt>
<trkpt lat="42.7460287" lon="-8.9565225">
<ele>54</ele>
<time>2015-08-29T19:08:19Z</time>
</trkpt>
<trkpt lat="42.7460454" lon="-8.9565292">
<ele>54</ele>
<time>2015-08-29T19:08:21Z</time>
</trkpt>
<trkpt lat="42.7460525" lon="-8.9565427">
<ele>54</ele>
<time>2015-08-29T19:08:23Z</time>
</trkpt>
<trkpt lat="42.7460501" lon="-8.9565572">
<ele>54</ele>
<time>2015-08-29T19:08:25Z</time>
</trkpt>
<trkpt lat="42.7460429" lon="-8.9565693">
<ele>54</ele>
<time>2015-08-29T19:08:27Z</time>
</trkpt>
<trkpt lat="42.7460322" lon="-8.9565774">
<ele>54</ele>
<time>2015-08-29T19:08:29Z</time>
</trkpt>
<trkpt lat="42.7460219" lon="-8.9565789">
<ele>54</ele>
<time>2015-08-29T19:08:31Z</time>
</trkpt>
<trkpt lat="42.7460151" lon="-8.9565789">
<ele>54</ele>
<time>2015-08-29T19:08:33Z</time>
</trkpt>
<trkpt lat="42.7460102" lon="-8.9565819">
<ele>54</ele>
<time>2015-08-29T19:08:35Z</time>
</trkpt>
<trkpt lat="42.7460070" lon="-8.9565864">
<ele>54</ele>
<time>2015-08-29T19:08:37Z</time>
</trkpt>
<trkpt lat="42.7460057" lon="-8.9565902">
<ele>54</ele>
<time>2015-08-29T19:08:39Z</time>
</trkpt>
<trkpt lat="42.7460056" lon="-8.9565933">
<ele>54</ele>
<time>2015-08-29T19:08:41Z</time>
</trkpt>
<trkpt lat="42.7460069" lon="-8.9565969">
<ele>54</ele>
<time>2015-08-29T19:08:43Z</time>
</trkpt>
<trkpt lat="42.7460159" lon="-8.9565940">
<ele>54</ele>
<time>2015-08-29T19:08:45Z</time>
</trkpt>
<trkpt lat="42.7460202" lon="-8.9565911">
<ele>54</ele>
<time>2015-08-29T19:08:47Z</time>
</trkpt>
<trkpt lat="42.7460193" lon="-8.9565777">
<ele>54</ele>
<time>2015-08-29T19:08:49Z</time>
</trkpt>
<trkpt lat="42.7460172" lon="-8.9565703">
<ele>54</ele>
<time>2015-08-29T19:08:51Z</time>
</trkpt>
<trkpt lat="42.7460197" lon="-8.9565678">
<ele>54</ele>
<time>2015-08-29T19:08:53Z</time>
</trkpt>
<trkpt lat="42.7460172" lon="-8.9565704">
<ele>54</ele>
<time>2015-08-29T19:08:55Z</time>
</trkpt>
<trkpt lat="42.7460179" lon="-8.9565672">
<ele>54</ele>
<time>2015-08-29T19:08:57Z</time>
</trkpt>
<trkpt lat="42.7460160" lon="-8.9565651">
<ele>54</ele>
<time>2015-08-29T19:08:59Z</time>
</trkpt>
<trkpt lat="42.7460157" lon="-8.9565621">
<ele>54</ele>
<time>2015-08-29T19:09:01Z</time>
</trkpt>
<trkpt lat="42.7460197" lon="-8.9565592">
<ele>54</ele>
<time>2015-08-29T19:09:03Z</time>
</trkpt>
<trkpt lat="42.7460247" lon="-8.9565554">
<ele>54</ele>
<time>2015-08-29T19:09:05Z</time>
</trkpt>
<trkpt lat="42.7460336" lon="-8.9565488">
<ele>54</ele>
<time>2015-08-29T19:09:07Z</time>
</trkpt>
<trkpt lat="42.7460414" lon="-8.9565452">
<ele>54</ele>
<time>2015-08-29T19:09:09Z</time>
</trkpt>
<trkpt lat="" lon="">
<ele></ele>
<time>2015-08-29TZ</time>
</trkpt>
</trkseg>
</trk>
<wpt lat="" lon="">
	<name></name>
	<desc></desc>
	<cmt></cmt>
	<photoid></photoid>
	<type></type>
</wpt>
</gpx>
